<?xml version="1.0" encoding="UTF-8" standalone="no" ?>
<gpx xmlns="http://www.topografix.com/GPX/1/1" xmlns:xsi="http://www.w3.org/2001/XMLSchema-instance" xsi:schemaLocation="http://www.topografix.com/GPX/1/1 http://www.topografix.com/GPX/1/1/gpx.xsd" version="1.1" creator="VisuGPX - https://www.visugpx.com">
  <metadata>
    <name>Dents d\'Arclusaz</name>
    <desc><![CDATA[Dents d\'arclusaz, Bauges]]></desc>
  </metadata>
  <trk>
    <name><![CDATA[bauges - dents d'arclusaz]]></name>
    <desc><![CDATA[<h1>OruxMaps</h1><br /><hr align="center" width="480" style="height: 2px; width: 517px"/><h2>Nom: bauges - dents d'arclusaz</h2><br /><p>Temps de départ: 06/14/2014 10:02</p><p>Temps d'arrivée: 06/14/2014 16:21</p><p>Distance: 15,6km (06:19)</p><p>Temps déplacement: 03:37</p><p>Vitesse moyenne: 2,5km/h</p><p>Vitesse moyenne: 4,3km/h</p><p>Vitess Max.: 80,3km/h</p><p>Altitude minimale: 767m</p><p>Altitude maximale: 2041m</p><p>Vitesse d'élévation: 505m/h</p><p>Vitesse de descente: -427,5m/h</p><p>Gain Altitude: 1419m</p><p>Perte Altitude: -1413m</p><p>Temps d'élévation: 02:48</p><p>Temps de descente: 03:18</p><hr align="center" width="480" style="height: 2px; width: 517px"/>]]></desc>
    <trkseg>
      <trkpt lat="45.61637" lon="6.145">
        <ele>770.99</ele>
        <time>2014-06-14T08:02:31Z</time>
      </trkpt>
      <trkpt lat="45.61642" lon="6.14526">
        <ele>771.12</ele>
        <time>2014-06-14T08:02:49Z</time>
      </trkpt>
      <trkpt lat="45.6165" lon="6.14549">
        <ele>770.14</ele>
        <time>2014-06-14T08:03:07Z</time>
      </trkpt>
      <trkpt lat="45.61663" lon="6.14568">
        <ele>771.9</ele>
        <time>2014-06-14T08:03:29Z</time>
      </trkpt>
      <trkpt lat="45.61678" lon="6.14585">
        <ele>767.79</ele>
        <time>2014-06-14T08:03:45Z</time>
      </trkpt>
      <trkpt lat="45.61696" lon="6.14591">
        <ele>768.1</ele>
        <time>2014-06-14T08:04:03Z</time>
      </trkpt>
      <trkpt lat="45.61715" lon="6.14592">
        <ele>771.09</ele>
        <time>2014-06-14T08:04:19Z</time>
      </trkpt>
      <trkpt lat="45.61731" lon="6.14602">
        <ele>774.33</ele>
        <time>2014-06-14T08:04:37Z</time>
      </trkpt>
      <trkpt lat="45.61748" lon="6.14613">
        <ele>776.09</ele>
        <time>2014-06-14T08:05:50Z</time>
      </trkpt>
      <trkpt lat="45.61765" lon="6.14627">
        <ele>778.94</ele>
        <time>2014-06-14T08:06:03Z</time>
      </trkpt>
      <trkpt lat="45.6178" lon="6.14643">
        <ele>781.01</ele>
        <time>2014-06-14T08:06:17Z</time>
      </trkpt>
      <trkpt lat="45.61796" lon="6.14656">
        <ele>786.61</ele>
        <time>2014-06-14T08:06:46Z</time>
      </trkpt>
      <trkpt lat="45.61814" lon="6.14666">
        <ele>786</ele>
        <time>2014-06-14T08:06:58Z</time>
      </trkpt>
      <trkpt lat="45.61827" lon="6.14685">
        <ele>788.76</ele>
        <time>2014-06-14T08:07:08Z</time>
      </trkpt>
      <trkpt lat="45.61837" lon="6.14708">
        <ele>786.61</ele>
        <time>2014-06-14T08:07:21Z</time>
      </trkpt>
      <trkpt lat="45.61845" lon="6.14731">
        <ele>790.34</ele>
        <time>2014-06-14T08:07:33Z</time>
      </trkpt>
      <trkpt lat="45.61845" lon="6.14757">
        <ele>788.04</ele>
        <time>2014-06-14T08:07:46Z</time>
      </trkpt>
      <trkpt lat="45.61844" lon="6.14784">
        <ele>791.72</ele>
        <time>2014-06-14T08:08:01Z</time>
      </trkpt>
      <trkpt lat="45.61838" lon="6.1481">
        <ele>791.77</ele>
        <time>2014-06-14T08:08:19Z</time>
      </trkpt>
      <trkpt lat="45.61828" lon="6.14832">
        <ele>795.59</ele>
        <time>2014-06-14T08:08:37Z</time>
      </trkpt>
      <trkpt lat="45.6182" lon="6.14856">
        <ele>796.27</ele>
        <time>2014-06-14T08:08:57Z</time>
      </trkpt>
      <trkpt lat="45.61816" lon="6.14882">
        <ele>800.07</ele>
        <time>2014-06-14T08:09:18Z</time>
      </trkpt>
      <trkpt lat="45.61812" lon="6.14907">
        <ele>803.8</ele>
        <time>2014-06-14T08:09:38Z</time>
      </trkpt>
      <trkpt lat="45.61807" lon="6.14932">
        <ele>804.81</ele>
        <time>2014-06-14T08:09:58Z</time>
      </trkpt>
      <trkpt lat="45.61805" lon="6.14958">
        <ele>807.84</ele>
        <time>2014-06-14T08:10:19Z</time>
      </trkpt>
      <trkpt lat="45.61799" lon="6.14983">
        <ele>810.36</ele>
        <time>2014-06-14T08:10:40Z</time>
      </trkpt>
      <trkpt lat="45.61799" lon="6.15009">
        <ele>810.4</ele>
        <time>2014-06-14T08:11:01Z</time>
      </trkpt>
      <trkpt lat="45.61799" lon="6.15037">
        <ele>815.38</ele>
        <time>2014-06-14T08:11:19Z</time>
      </trkpt>
      <trkpt lat="45.61789" lon="6.1506">
        <ele>818.81</ele>
        <time>2014-06-14T08:11:38Z</time>
      </trkpt>
      <trkpt lat="45.61778" lon="6.1508">
        <ele>818.87</ele>
        <time>2014-06-14T08:11:58Z</time>
      </trkpt>
      <trkpt lat="45.61765" lon="6.15099">
        <ele>823.41</ele>
        <time>2014-06-14T08:12:20Z</time>
      </trkpt>
      <trkpt lat="45.61752" lon="6.15117">
        <ele>828.04</ele>
        <time>2014-06-14T08:12:44Z</time>
      </trkpt>
      <trkpt lat="45.61738" lon="6.15135">
        <ele>826.79</ele>
        <time>2014-06-14T08:13:04Z</time>
      </trkpt>
      <trkpt lat="45.61729" lon="6.15157">
        <ele>831.61</ele>
        <time>2014-06-14T08:13:31Z</time>
      </trkpt>
      <trkpt lat="45.6171" lon="6.1516">
        <ele>838.26</ele>
        <time>2014-06-14T08:13:55Z</time>
      </trkpt>
      <trkpt lat="45.61694" lon="6.15173">
        <ele>840.13</ele>
        <time>2014-06-14T08:14:22Z</time>
      </trkpt>
      <trkpt lat="45.61676" lon="6.15179">
        <ele>841.76</ele>
        <time>2014-06-14T08:14:55Z</time>
      </trkpt>
      <trkpt lat="45.61658" lon="6.15188">
        <ele>840.78</ele>
        <time>2014-06-14T08:15:58Z</time>
      </trkpt>
      <trkpt lat="45.61641" lon="6.15201">
        <ele>848.16</ele>
        <time>2014-06-14T08:17:08Z</time>
      </trkpt>
      <trkpt lat="45.61628" lon="6.15222">
        <ele>859.02</ele>
        <time>2014-06-14T08:17:25Z</time>
      </trkpt>
      <trkpt lat="45.61614" lon="6.15245">
        <ele>869.82</ele>
        <time>2014-06-14T08:17:29Z</time>
      </trkpt>
      <trkpt lat="45.61602" lon="6.15264">
        <ele>876.46</ele>
        <time>2014-06-14T08:17:46Z</time>
      </trkpt>
      <trkpt lat="45.61583" lon="6.15267">
        <ele>875.5</ele>
        <time>2014-06-14T08:18:06Z</time>
      </trkpt>
      <trkpt lat="45.61564" lon="6.1527">
        <ele>877.01</ele>
        <time>2014-06-14T08:18:25Z</time>
      </trkpt>
      <trkpt lat="45.61546" lon="6.15264">
        <ele>878.52</ele>
        <time>2014-06-14T08:18:44Z</time>
      </trkpt>
      <trkpt lat="45.61554" lon="6.15288">
        <ele>882.82</ele>
        <time>2014-06-14T08:19:47Z</time>
      </trkpt>
      <trkpt lat="45.61564" lon="6.15311">
        <ele>877.25</ele>
        <time>2014-06-14T08:20:03Z</time>
      </trkpt>
      <trkpt lat="45.61572" lon="6.15335">
        <ele>881.64</ele>
        <time>2014-06-14T08:20:23Z</time>
      </trkpt>
      <trkpt lat="45.61585" lon="6.15355">
        <ele>887.06</ele>
        <time>2014-06-14T08:20:39Z</time>
      </trkpt>
      <trkpt lat="45.61574" lon="6.15376">
        <ele>890.68</ele>
        <time>2014-06-14T08:21:05Z</time>
      </trkpt>
      <trkpt lat="45.61556" lon="6.15371">
        <ele>890.44</ele>
        <time>2014-06-14T08:21:34Z</time>
      </trkpt>
      <trkpt lat="45.61537" lon="6.15371">
        <ele>894.63</ele>
        <time>2014-06-14T08:21:53Z</time>
      </trkpt>
      <trkpt lat="45.61519" lon="6.15375">
        <ele>908.61</ele>
        <time>2014-06-14T08:24:34Z</time>
      </trkpt>
      <trkpt lat="45.61502" lon="6.15364">
        <ele>902.39</ele>
        <time>2014-06-14T08:25:24Z</time>
      </trkpt>
      <trkpt lat="45.61482" lon="6.1536">
        <ele>889.27</ele>
        <time>2014-06-14T08:25:34Z</time>
      </trkpt>
      <trkpt lat="45.61464" lon="6.15356">
        <ele>887.76</ele>
        <time>2014-06-14T08:25:49Z</time>
      </trkpt>
      <trkpt lat="45.6145" lon="6.15338">
        <ele>893.23</ele>
        <time>2014-06-14T08:26:45Z</time>
      </trkpt>
      <trkpt lat="45.61433" lon="6.15327">
        <ele>895.82</ele>
        <time>2014-06-14T08:26:59Z</time>
      </trkpt>
      <trkpt lat="45.61412" lon="6.15332">
        <ele>907.82</ele>
        <time>2014-06-14T08:27:12Z</time>
      </trkpt>
      <trkpt lat="45.61393" lon="6.15335">
        <ele>925.93</ele>
        <time>2014-06-14T08:27:17Z</time>
      </trkpt>
      <trkpt lat="45.61377" lon="6.15323">
        <ele>944.69</ele>
        <time>2014-06-14T08:27:44Z</time>
      </trkpt>
      <trkpt lat="45.61359" lon="6.15324">
        <ele>952.63</ele>
        <time>2014-06-14T08:29:11Z</time>
      </trkpt>
      <trkpt lat="45.6134" lon="6.15317">
        <ele>951.96</ele>
        <time>2014-06-14T08:29:25Z</time>
      </trkpt>
      <trkpt lat="45.61325" lon="6.15333">
        <ele>952.48</ele>
        <time>2014-06-14T08:29:46Z</time>
      </trkpt>
      <trkpt lat="45.61306" lon="6.1533">
        <ele>958.82</ele>
        <time>2014-06-14T08:30:11Z</time>
      </trkpt>
      <trkpt lat="45.61294" lon="6.15352">
        <ele>963.85</ele>
        <time>2014-06-14T08:30:27Z</time>
      </trkpt>
      <trkpt lat="45.6129" lon="6.15378">
        <ele>978.03</ele>
        <time>2014-06-14T08:30:51Z</time>
      </trkpt>
      <trkpt lat="45.61287" lon="6.15404">
        <ele>988.75</ele>
        <time>2014-06-14T08:31:23Z</time>
      </trkpt>
      <trkpt lat="45.61293" lon="6.15429">
        <ele>995.39</ele>
        <time>2014-06-14T08:31:44Z</time>
      </trkpt>
      <trkpt lat="45.61304" lon="6.15451">
        <ele>994.8</ele>
        <time>2014-06-14T08:32:00Z</time>
      </trkpt>
      <trkpt lat="45.61318" lon="6.15468">
        <ele>993.64</ele>
        <time>2014-06-14T08:32:15Z</time>
      </trkpt>
      <trkpt lat="45.61331" lon="6.15486">
        <ele>994.31</ele>
        <time>2014-06-14T08:32:33Z</time>
      </trkpt>
      <trkpt lat="45.61345" lon="6.15505">
        <ele>994.5</ele>
        <time>2014-06-14T08:32:50Z</time>
      </trkpt>
      <trkpt lat="45.61355" lon="6.15527">
        <ele>995.25</ele>
        <time>2014-06-14T08:33:05Z</time>
      </trkpt>
      <trkpt lat="45.61362" lon="6.15552">
        <ele>990.44</ele>
        <time>2014-06-14T08:33:23Z</time>
      </trkpt>
      <trkpt lat="45.61373" lon="6.15573">
        <ele>994.61</ele>
        <time>2014-06-14T08:33:41Z</time>
      </trkpt>
      <trkpt lat="45.61377" lon="6.15599">
        <ele>993.91</ele>
        <time>2014-06-14T08:33:57Z</time>
      </trkpt>
      <trkpt lat="45.6138" lon="6.15624">
        <ele>991.8</ele>
        <time>2014-06-14T08:34:21Z</time>
      </trkpt>
      <trkpt lat="45.61377" lon="6.1565">
        <ele>996.93</ele>
        <time>2014-06-14T08:34:47Z</time>
      </trkpt>
      <trkpt lat="45.61367" lon="6.15673">
        <ele>997.73</ele>
        <time>2014-06-14T08:35:09Z</time>
      </trkpt>
      <trkpt lat="45.61365" lon="6.15699">
        <ele>999.33</ele>
        <time>2014-06-14T08:35:21Z</time>
      </trkpt>
      <trkpt lat="45.61381" lon="6.15713">
        <ele>999.95</ele>
        <time>2014-06-14T08:35:43Z</time>
      </trkpt>
      <trkpt lat="45.61397" lon="6.15726">
        <ele>992.73</ele>
        <time>2014-06-14T08:36:06Z</time>
      </trkpt>
      <trkpt lat="45.61411" lon="6.15743">
        <ele>989.58</ele>
        <time>2014-06-14T08:36:22Z</time>
      </trkpt>
      <trkpt lat="45.61424" lon="6.15763">
        <ele>990.87</ele>
        <time>2014-06-14T08:36:37Z</time>
      </trkpt>
      <trkpt lat="45.6144" lon="6.15777">
        <ele>992.06</ele>
        <time>2014-06-14T08:36:50Z</time>
      </trkpt>
      <trkpt lat="45.61443" lon="6.15802">
        <ele>990.76</ele>
        <time>2014-06-14T08:38:36Z</time>
      </trkpt>
      <trkpt lat="45.61433" lon="6.15824">
        <ele>992.71</ele>
        <time>2014-06-14T08:38:47Z</time>
      </trkpt>
      <trkpt lat="45.61439" lon="6.15848">
        <ele>991.39</ele>
        <time>2014-06-14T08:39:03Z</time>
      </trkpt>
      <trkpt lat="45.61446" lon="6.15872">
        <ele>997.39</ele>
        <time>2014-06-14T08:40:13Z</time>
      </trkpt>
      <trkpt lat="45.61461" lon="6.15889">
        <ele>1000.39</ele>
        <time>2014-06-14T08:40:35Z</time>
      </trkpt>
      <trkpt lat="45.61475" lon="6.15905">
        <ele>1020.46</ele>
        <time>2014-06-14T08:40:52Z</time>
      </trkpt>
      <trkpt lat="45.61482" lon="6.1593">
        <ele>1020.28</ele>
        <time>2014-06-14T08:41:50Z</time>
      </trkpt>
      <trkpt lat="45.61485" lon="6.15956">
        <ele>1021.23</ele>
        <time>2014-06-14T08:42:14Z</time>
      </trkpt>
      <trkpt lat="45.6149" lon="6.15982">
        <ele>1023.37</ele>
        <time>2014-06-14T08:42:34Z</time>
      </trkpt>
      <trkpt lat="45.61487" lon="6.16008">
        <ele>1027.13</ele>
        <time>2014-06-14T08:43:21Z</time>
      </trkpt>
      <trkpt lat="45.61491" lon="6.16033">
        <ele>1040.45</ele>
        <time>2014-06-14T08:44:04Z</time>
      </trkpt>
      <trkpt lat="45.6148" lon="6.16054">
        <ele>1043</ele>
        <time>2014-06-14T08:45:02Z</time>
      </trkpt>
      <trkpt lat="45.61466" lon="6.16084">
        <ele>1049.59</ele>
        <time>2014-06-14T08:46:18Z</time>
      </trkpt>
      <trkpt lat="45.61449" lon="6.16095">
        <ele>1065.98</ele>
        <time>2014-06-14T08:47:17Z</time>
      </trkpt>
      <trkpt lat="45.61434" lon="6.16079">
        <ele>1073.92</ele>
        <time>2014-06-14T08:48:29Z</time>
      </trkpt>
      <trkpt lat="45.61421" lon="6.16059">
        <ele>1095.72</ele>
        <time>2014-06-14T08:48:36Z</time>
      </trkpt>
      <trkpt lat="45.6141" lon="6.16039">
        <ele>1111.1</ele>
        <time>2014-06-14T08:48:47Z</time>
      </trkpt>
      <trkpt lat="45.61397" lon="6.1602">
        <ele>1120.08</ele>
        <time>2014-06-14T08:49:06Z</time>
      </trkpt>
      <trkpt lat="45.61406" lon="6.16043">
        <ele>1113.33</ele>
        <time>2014-06-14T08:50:10Z</time>
      </trkpt>
      <trkpt lat="45.61388" lon="6.16048">
        <ele>1113.19</ele>
        <time>2014-06-14T08:51:38Z</time>
      </trkpt>
      <trkpt lat="45.6137" lon="6.16055">
        <ele>1115.92</ele>
        <time>2014-06-14T08:52:26Z</time>
      </trkpt>
      <trkpt lat="45.61333" lon="6.16061">
        <ele>1120.21</ele>
        <time>2014-06-14T08:53:23Z</time>
      </trkpt>
      <trkpt lat="45.61313" lon="6.16054">
        <ele>1137.21</ele>
        <time>2014-06-14T08:53:27Z</time>
      </trkpt>
      <trkpt lat="45.61297" lon="6.16043">
        <ele>1148.11</ele>
        <time>2014-06-14T08:54:06Z</time>
      </trkpt>
      <trkpt lat="45.61278" lon="6.16047">
        <ele>1154.87</ele>
        <time>2014-06-14T08:54:51Z</time>
      </trkpt>
      <trkpt lat="45.61263" lon="6.16061">
        <ele>1157.85</ele>
        <time>2014-06-14T08:55:07Z</time>
      </trkpt>
      <trkpt lat="45.61244" lon="6.16067">
        <ele>1162.95</ele>
        <time>2014-06-14T08:55:32Z</time>
      </trkpt>
      <trkpt lat="45.61228" lon="6.16076">
        <ele>1172</ele>
        <time>2014-06-14T08:55:52Z</time>
      </trkpt>
      <trkpt lat="45.6121" lon="6.16077">
        <ele>1179.25</ele>
        <time>2014-06-14T08:56:29Z</time>
      </trkpt>
      <trkpt lat="45.61193" lon="6.16089">
        <ele>1183.06</ele>
        <time>2014-06-14T08:56:56Z</time>
      </trkpt>
      <trkpt lat="45.61176" lon="6.16096">
        <ele>1188.13</ele>
        <time>2014-06-14T08:57:21Z</time>
      </trkpt>
      <trkpt lat="45.61157" lon="6.16099">
        <ele>1190.22</ele>
        <time>2014-06-14T08:57:43Z</time>
      </trkpt>
      <trkpt lat="45.61138" lon="6.16101">
        <ele>1191.28</ele>
        <time>2014-06-14T08:58:06Z</time>
      </trkpt>
      <trkpt lat="45.61122" lon="6.16112">
        <ele>1196.11</ele>
        <time>2014-06-14T08:59:02Z</time>
      </trkpt>
      <trkpt lat="45.61104" lon="6.1612">
        <ele>1201.44</ele>
        <time>2014-06-14T08:59:42Z</time>
      </trkpt>
      <trkpt lat="45.61085" lon="6.16125">
        <ele>1206.22</ele>
        <time>2014-06-14T09:00:02Z</time>
      </trkpt>
      <trkpt lat="45.61067" lon="6.16125">
        <ele>1212.5</ele>
        <time>2014-06-14T09:00:27Z</time>
      </trkpt>
      <trkpt lat="45.61048" lon="6.16129">
        <ele>1211.07</ele>
        <time>2014-06-14T09:00:44Z</time>
      </trkpt>
      <trkpt lat="45.6103" lon="6.16138">
        <ele>1215.04</ele>
        <time>2014-06-14T09:02:05Z</time>
      </trkpt>
      <trkpt lat="45.61014" lon="6.16153">
        <ele>1214.45</ele>
        <time>2014-06-14T09:02:20Z</time>
      </trkpt>
      <trkpt lat="45.60997" lon="6.16158">
        <ele>1213.95</ele>
        <time>2014-06-14T09:03:00Z</time>
      </trkpt>
      <trkpt lat="45.60982" lon="6.16172">
        <ele>1218.87</ele>
        <time>2014-06-14T09:04:03Z</time>
      </trkpt>
      <trkpt lat="45.60967" lon="6.16188">
        <ele>1220.14</ele>
        <time>2014-06-14T09:04:40Z</time>
      </trkpt>
      <trkpt lat="45.60951" lon="6.162">
        <ele>1221.44</ele>
        <time>2014-06-14T09:04:45Z</time>
      </trkpt>
      <trkpt lat="45.60931" lon="6.16205">
        <ele>1225.02</ele>
        <time>2014-06-14T09:04:55Z</time>
      </trkpt>
      <trkpt lat="45.60913" lon="6.16205">
        <ele>1251.46</ele>
        <time>2014-06-14T09:05:37Z</time>
      </trkpt>
      <trkpt lat="45.60904" lon="6.16183">
        <ele>1264.19</ele>
        <time>2014-06-14T09:06:20Z</time>
      </trkpt>
      <trkpt lat="45.60887" lon="6.16172">
        <ele>1261.08</ele>
        <time>2014-06-14T09:07:06Z</time>
      </trkpt>
      <trkpt lat="45.6087" lon="6.16164">
        <ele>1261.4</ele>
        <time>2014-06-14T09:07:26Z</time>
      </trkpt>
      <trkpt lat="45.60853" lon="6.16157">
        <ele>1264.34</ele>
        <time>2014-06-14T09:07:46Z</time>
      </trkpt>
      <trkpt lat="45.60834" lon="6.16156">
        <ele>1271.79</ele>
        <time>2014-06-14T09:08:09Z</time>
      </trkpt>
      <trkpt lat="45.60816" lon="6.1616">
        <ele>1273.92</ele>
        <time>2014-06-14T09:08:24Z</time>
      </trkpt>
      <trkpt lat="45.60798" lon="6.16166">
        <ele>1270.09</ele>
        <time>2014-06-14T09:08:44Z</time>
      </trkpt>
      <trkpt lat="45.6078" lon="6.16168">
        <ele>1269.8</ele>
        <time>2014-06-14T09:09:05Z</time>
      </trkpt>
      <trkpt lat="45.60762" lon="6.16178">
        <ele>1280.5</ele>
        <time>2014-06-14T09:09:23Z</time>
      </trkpt>
      <trkpt lat="45.60744" lon="6.16184">
        <ele>1282.03</ele>
        <time>2014-06-14T09:09:36Z</time>
      </trkpt>
      <trkpt lat="45.60727" lon="6.16195">
        <ele>1281.73</ele>
        <time>2014-06-14T09:10:09Z</time>
      </trkpt>
      <trkpt lat="45.6071" lon="6.16203">
        <ele>1289.65</ele>
        <time>2014-06-14T09:10:35Z</time>
      </trkpt>
      <trkpt lat="45.60692" lon="6.16198">
        <ele>1296.05</ele>
        <time>2014-06-14T09:11:08Z</time>
      </trkpt>
      <trkpt lat="45.60685" lon="6.16173">
        <ele>1294.86</ele>
        <time>2014-06-14T09:11:55Z</time>
      </trkpt>
      <trkpt lat="45.60682" lon="6.16147">
        <ele>1297.04</ele>
        <time>2014-06-14T09:12:36Z</time>
      </trkpt>
      <trkpt lat="45.60674" lon="6.16124">
        <ele>1296.86</ele>
        <time>2014-06-14T09:13:20Z</time>
      </trkpt>
      <trkpt lat="45.60658" lon="6.1611">
        <ele>1295.38</ele>
        <time>2014-06-14T09:15:15Z</time>
      </trkpt>
      <trkpt lat="45.60641" lon="6.16096">
        <ele>1294.5</ele>
        <time>2014-06-14T09:15:38Z</time>
      </trkpt>
      <trkpt lat="45.60627" lon="6.16079">
        <ele>1297.54</ele>
        <time>2014-06-14T09:15:56Z</time>
      </trkpt>
      <trkpt lat="45.60609" lon="6.16074">
        <ele>1304.1</ele>
        <time>2014-06-14T09:16:22Z</time>
      </trkpt>
      <trkpt lat="45.60603" lon="6.16049">
        <ele>1317.6</ele>
        <time>2014-06-14T09:17:03Z</time>
      </trkpt>
      <trkpt lat="45.60588" lon="6.16034">
        <ele>1323.72</ele>
        <time>2014-06-14T09:18:28Z</time>
      </trkpt>
      <trkpt lat="45.6057" lon="6.16026">
        <ele>1328.95</ele>
        <time>2014-06-14T09:19:11Z</time>
      </trkpt>
      <trkpt lat="45.60552" lon="6.16032">
        <ele>1333.2</ele>
        <time>2014-06-14T09:19:26Z</time>
      </trkpt>
      <trkpt lat="45.60535" lon="6.16043">
        <ele>1334.97</ele>
        <time>2014-06-14T09:19:57Z</time>
      </trkpt>
      <trkpt lat="45.60517" lon="6.16045">
        <ele>1337.43</ele>
        <time>2014-06-14T09:20:14Z</time>
      </trkpt>
      <trkpt lat="45.605" lon="6.16035">
        <ele>1339.75</ele>
        <time>2014-06-14T09:20:35Z</time>
      </trkpt>
      <trkpt lat="45.60497" lon="6.16061">
        <ele>1347.78</ele>
        <time>2014-06-14T09:23:07Z</time>
      </trkpt>
      <trkpt lat="45.60508" lon="6.16082">
        <ele>1349.12</ele>
        <time>2014-06-14T09:23:50Z</time>
      </trkpt>
      <trkpt lat="45.60492" lon="6.16095">
        <ele>1363.87</ele>
        <time>2014-06-14T09:24:41Z</time>
      </trkpt>
      <trkpt lat="45.60476" lon="6.16105">
        <ele>1363.18</ele>
        <time>2014-06-14T09:25:20Z</time>
      </trkpt>
      <trkpt lat="45.6046" lon="6.16118">
        <ele>1369.59</ele>
        <time>2014-06-14T09:26:23Z</time>
      </trkpt>
      <trkpt lat="45.60445" lon="6.16136">
        <ele>1376</ele>
        <time>2014-06-14T09:26:42Z</time>
      </trkpt>
      <trkpt lat="45.60431" lon="6.16152">
        <ele>1377.84</ele>
        <time>2014-06-14T09:27:06Z</time>
      </trkpt>
      <trkpt lat="45.6042" lon="6.16173">
        <ele>1380.2</ele>
        <time>2014-06-14T09:27:33Z</time>
      </trkpt>
      <trkpt lat="45.60407" lon="6.16191">
        <ele>1379.18</ele>
        <time>2014-06-14T09:27:48Z</time>
      </trkpt>
      <trkpt lat="45.60397" lon="6.16213">
        <ele>1381.1</ele>
        <time>2014-06-14T09:28:09Z</time>
      </trkpt>
      <trkpt lat="45.60382" lon="6.16227">
        <ele>1383.33</ele>
        <time>2014-06-14T09:28:33Z</time>
      </trkpt>
      <trkpt lat="45.60363" lon="6.16235">
        <ele>1393.73</ele>
        <time>2014-06-14T09:29:08Z</time>
      </trkpt>
      <trkpt lat="45.60346" lon="6.16244">
        <ele>1396.23</ele>
        <time>2014-06-14T09:29:24Z</time>
      </trkpt>
      <trkpt lat="45.60328" lon="6.16238">
        <ele>1410.46</ele>
        <time>2014-06-14T09:29:51Z</time>
      </trkpt>
      <trkpt lat="45.6031" lon="6.1623">
        <ele>1416.88</ele>
        <time>2014-06-14T09:30:03Z</time>
      </trkpt>
      <trkpt lat="45.60291" lon="6.1623">
        <ele>1410.12</ele>
        <time>2014-06-14T09:30:28Z</time>
      </trkpt>
      <trkpt lat="45.60273" lon="6.16235">
        <ele>1407.3</ele>
        <time>2014-06-14T09:30:46Z</time>
      </trkpt>
      <trkpt lat="45.60256" lon="6.16245">
        <ele>1405.68</ele>
        <time>2014-06-14T09:31:02Z</time>
      </trkpt>
      <trkpt lat="45.60238" lon="6.16248">
        <ele>1400.17</ele>
        <time>2014-06-14T09:31:16Z</time>
      </trkpt>
      <trkpt lat="45.60222" lon="6.16263">
        <ele>1401.56</ele>
        <time>2014-06-14T09:31:31Z</time>
      </trkpt>
      <trkpt lat="45.60205" lon="6.16272">
        <ele>1400.65</ele>
        <time>2014-06-14T09:31:46Z</time>
      </trkpt>
      <trkpt lat="45.60186" lon="6.16268">
        <ele>1407.37</ele>
        <time>2014-06-14T09:31:58Z</time>
      </trkpt>
      <trkpt lat="45.60168" lon="6.16261">
        <ele>1414.74</ele>
        <time>2014-06-14T09:32:16Z</time>
      </trkpt>
      <trkpt lat="45.6015" lon="6.16265">
        <ele>1414.03</ele>
        <time>2014-06-14T09:32:34Z</time>
      </trkpt>
      <trkpt lat="45.60131" lon="6.16273">
        <ele>1414.91</ele>
        <time>2014-06-14T09:32:58Z</time>
      </trkpt>
      <trkpt lat="45.60114" lon="6.16281">
        <ele>1420.16</ele>
        <time>2014-06-14T09:33:10Z</time>
      </trkpt>
      <trkpt lat="45.60096" lon="6.16289">
        <ele>1426.47</ele>
        <time>2014-06-14T09:33:26Z</time>
      </trkpt>
      <trkpt lat="45.60077" lon="6.16293">
        <ele>1433.54</ele>
        <time>2014-06-14T09:33:43Z</time>
      </trkpt>
      <trkpt lat="45.60061" lon="6.16306">
        <ele>1435.66</ele>
        <time>2014-06-14T09:34:07Z</time>
      </trkpt>
      <trkpt lat="45.60045" lon="6.16317">
        <ele>1433.97</ele>
        <time>2014-06-14T09:34:26Z</time>
      </trkpt>
      <trkpt lat="45.60057" lon="6.16336">
        <ele>1426.77</ele>
        <time>2014-06-14T09:35:10Z</time>
      </trkpt>
      <trkpt lat="45.60075" lon="6.16329">
        <ele>1433.31</ele>
        <time>2014-06-14T09:35:30Z</time>
      </trkpt>
      <trkpt lat="45.60093" lon="6.16333">
        <ele>1429.72</ele>
        <time>2014-06-14T09:35:59Z</time>
      </trkpt>
      <trkpt lat="45.60111" lon="6.16333">
        <ele>1428.99</ele>
        <time>2014-06-14T09:36:58Z</time>
      </trkpt>
      <trkpt lat="45.60129" lon="6.16343">
        <ele>1429.38</ele>
        <time>2014-06-14T09:37:17Z</time>
      </trkpt>
      <trkpt lat="45.60146" lon="6.16332">
        <ele>1433.92</ele>
        <time>2014-06-14T09:37:32Z</time>
      </trkpt>
      <trkpt lat="45.60165" lon="6.16337">
        <ele>1441.93</ele>
        <time>2014-06-14T09:37:46Z</time>
      </trkpt>
      <trkpt lat="45.60183" lon="6.16338">
        <ele>1447.06</ele>
        <time>2014-06-14T09:38:00Z</time>
      </trkpt>
      <trkpt lat="45.60201" lon="6.16336">
        <ele>1450.39</ele>
        <time>2014-06-14T09:38:28Z</time>
      </trkpt>
      <trkpt lat="45.60219" lon="6.16335">
        <ele>1451.59</ele>
        <time>2014-06-14T09:38:56Z</time>
      </trkpt>
      <trkpt lat="45.60237" lon="6.16331">
        <ele>1459.9</ele>
        <time>2014-06-14T09:39:37Z</time>
      </trkpt>
      <trkpt lat="45.60255" lon="6.16336">
        <ele>1466.92</ele>
        <time>2014-06-14T09:39:52Z</time>
      </trkpt>
      <trkpt lat="45.60273" lon="6.16339">
        <ele>1466.18</ele>
        <time>2014-06-14T09:40:08Z</time>
      </trkpt>
      <trkpt lat="45.60289" lon="6.16354">
        <ele>1470.38</ele>
        <time>2014-06-14T09:40:22Z</time>
      </trkpt>
      <trkpt lat="45.60299" lon="6.16376">
        <ele>1468.57</ele>
        <time>2014-06-14T09:40:30Z</time>
      </trkpt>
      <trkpt lat="45.60316" lon="6.16384">
        <ele>1476.49</ele>
        <time>2014-06-14T09:40:53Z</time>
      </trkpt>
      <trkpt lat="45.60301" lon="6.16399">
        <ele>1494.84</ele>
        <time>2014-06-14T09:43:07Z</time>
      </trkpt>
      <trkpt lat="45.60284" lon="6.16411">
        <ele>1496.69</ele>
        <time>2014-06-14T09:43:31Z</time>
      </trkpt>
      <trkpt lat="45.60266" lon="6.16417">
        <ele>1500.64</ele>
        <time>2014-06-14T09:44:07Z</time>
      </trkpt>
      <trkpt lat="45.60232" lon="6.16404">
        <ele>1512.23</ele>
        <time>2014-06-14T09:44:15Z</time>
      </trkpt>
      <trkpt lat="45.60214" lon="6.1641">
        <ele>1513.55</ele>
        <time>2014-06-14T09:44:37Z</time>
      </trkpt>
      <trkpt lat="45.60201" lon="6.1643">
        <ele>1512.36</ele>
        <time>2014-06-14T09:45:17Z</time>
      </trkpt>
      <trkpt lat="45.60188" lon="6.16447">
        <ele>1509.36</ele>
        <time>2014-06-14T09:45:41Z</time>
      </trkpt>
      <trkpt lat="45.60173" lon="6.16462">
        <ele>1506.54</ele>
        <time>2014-06-14T09:45:51Z</time>
      </trkpt>
      <trkpt lat="45.60155" lon="6.1647">
        <ele>1512.9</ele>
        <time>2014-06-14T09:46:02Z</time>
      </trkpt>
      <trkpt lat="45.60137" lon="6.16481">
        <ele>1515.94</ele>
        <time>2014-06-14T09:46:20Z</time>
      </trkpt>
      <trkpt lat="45.60118" lon="6.16486">
        <ele>1522.69</ele>
        <time>2014-06-14T09:46:47Z</time>
      </trkpt>
      <trkpt lat="45.60136" lon="6.1649">
        <ele>1534.73</ele>
        <time>2014-06-14T09:49:11Z</time>
      </trkpt>
      <trkpt lat="45.60153" lon="6.16499">
        <ele>1538.24</ele>
        <time>2014-06-14T09:49:32Z</time>
      </trkpt>
      <trkpt lat="45.60168" lon="6.16515">
        <ele>1538.31</ele>
        <time>2014-06-14T09:49:42Z</time>
      </trkpt>
      <trkpt lat="45.60187" lon="6.1652">
        <ele>1543.42</ele>
        <time>2014-06-14T09:49:57Z</time>
      </trkpt>
      <trkpt lat="45.60206" lon="6.16522">
        <ele>1556.55</ele>
        <time>2014-06-14T09:50:05Z</time>
      </trkpt>
      <trkpt lat="45.6019" lon="6.16536">
        <ele>1564.64</ele>
        <time>2014-06-14T09:52:01Z</time>
      </trkpt>
      <trkpt lat="45.60176" lon="6.16554">
        <ele>1559.41</ele>
        <time>2014-06-14T09:52:09Z</time>
      </trkpt>
      <trkpt lat="45.60157" lon="6.16561">
        <ele>1571.01</ele>
        <time>2014-06-14T09:52:27Z</time>
      </trkpt>
      <trkpt lat="45.60152" lon="6.16586">
        <ele>1591.24</ele>
        <time>2014-06-14T09:53:27Z</time>
      </trkpt>
      <trkpt lat="45.60166" lon="6.16604">
        <ele>1589.19</ele>
        <time>2014-06-14T09:53:50Z</time>
      </trkpt>
      <trkpt lat="45.60182" lon="6.16616">
        <ele>1589.11</ele>
        <time>2014-06-14T09:54:08Z</time>
      </trkpt>
      <trkpt lat="45.6019" lon="6.16641">
        <ele>1588.99</ele>
        <time>2014-06-14T09:54:22Z</time>
      </trkpt>
      <trkpt lat="45.60171" lon="6.16641">
        <ele>1603.61</ele>
        <time>2014-06-14T09:56:19Z</time>
      </trkpt>
      <trkpt lat="45.60153" lon="6.16648">
        <ele>1619.09</ele>
        <time>2014-06-14T09:56:33Z</time>
      </trkpt>
      <trkpt lat="45.60154" lon="6.16676">
        <ele>1622.18</ele>
        <time>2014-06-14T09:57:14Z</time>
      </trkpt>
      <trkpt lat="45.60165" lon="6.16698">
        <ele>1628.15</ele>
        <time>2014-06-14T09:57:29Z</time>
      </trkpt>
      <trkpt lat="45.60177" lon="6.16717">
        <ele>1636.97</ele>
        <time>2014-06-14T09:57:58Z</time>
      </trkpt>
      <trkpt lat="45.60159" lon="6.16711">
        <ele>1642.32</ele>
        <time>2014-06-14T09:58:38Z</time>
      </trkpt>
      <trkpt lat="45.60142" lon="6.16704">
        <ele>1653.48</ele>
        <time>2014-06-14T09:59:00Z</time>
      </trkpt>
      <trkpt lat="45.60129" lon="6.16723">
        <ele>1663.61</ele>
        <time>2014-06-14T09:59:28Z</time>
      </trkpt>
      <trkpt lat="45.6014" lon="6.16743">
        <ele>1664.31</ele>
        <time>2014-06-14T09:59:52Z</time>
      </trkpt>
      <trkpt lat="45.60154" lon="6.16761">
        <ele>1668.47</ele>
        <time>2014-06-14T10:00:14Z</time>
      </trkpt>
      <trkpt lat="45.60166" lon="6.16781">
        <ele>1671.54</ele>
        <time>2014-06-14T10:00:49Z</time>
      </trkpt>
      <trkpt lat="45.60147" lon="6.1677">
        <ele>1678.19</ele>
        <time>2014-06-14T10:01:36Z</time>
      </trkpt>
      <trkpt lat="45.60129" lon="6.16769">
        <ele>1684.74</ele>
        <time>2014-06-14T10:01:49Z</time>
      </trkpt>
      <trkpt lat="45.60111" lon="6.16774">
        <ele>1691.65</ele>
        <time>2014-06-14T10:02:19Z</time>
      </trkpt>
      <trkpt lat="45.60094" lon="6.16784">
        <ele>1695.39</ele>
        <time>2014-06-14T10:02:42Z</time>
      </trkpt>
      <trkpt lat="45.60079" lon="6.16798">
        <ele>1698.35</ele>
        <time>2014-06-14T10:03:14Z</time>
      </trkpt>
      <trkpt lat="45.60095" lon="6.16813">
        <ele>1710.77</ele>
        <time>2014-06-14T10:04:12Z</time>
      </trkpt>
      <trkpt lat="45.60111" lon="6.16826">
        <ele>1718.24</ele>
        <time>2014-06-14T10:04:34Z</time>
      </trkpt>
      <trkpt lat="45.60124" lon="6.16844">
        <ele>1724.1</ele>
        <time>2014-06-14T10:04:58Z</time>
      </trkpt>
      <trkpt lat="45.60106" lon="6.16848">
        <ele>1726.98</ele>
        <time>2014-06-14T10:05:37Z</time>
      </trkpt>
      <trkpt lat="45.60088" lon="6.16855">
        <ele>1733.18</ele>
        <time>2014-06-14T10:06:04Z</time>
      </trkpt>
      <trkpt lat="45.60073" lon="6.16869">
        <ele>1738.84</ele>
        <time>2014-06-14T10:06:29Z</time>
      </trkpt>
      <trkpt lat="45.60059" lon="6.16887">
        <ele>1739.96</ele>
        <time>2014-06-14T10:06:54Z</time>
      </trkpt>
      <trkpt lat="45.60048" lon="6.16909">
        <ele>1741.54</ele>
        <time>2014-06-14T10:07:21Z</time>
      </trkpt>
      <trkpt lat="45.60066" lon="6.16906">
        <ele>1747.37</ele>
        <time>2014-06-14T10:08:28Z</time>
      </trkpt>
      <trkpt lat="45.60084" lon="6.16907">
        <ele>1749.44</ele>
        <time>2014-06-14T10:08:58Z</time>
      </trkpt>
      <trkpt lat="45.60102" lon="6.16916">
        <ele>1753.5</ele>
        <time>2014-06-14T10:09:18Z</time>
      </trkpt>
      <trkpt lat="45.60086" lon="6.16929">
        <ele>1760.14</ele>
        <time>2014-06-14T10:10:05Z</time>
      </trkpt>
      <trkpt lat="45.60075" lon="6.16951">
        <ele>1762.6</ele>
        <time>2014-06-14T10:10:35Z</time>
      </trkpt>
      <trkpt lat="45.60072" lon="6.16977">
        <ele>1762.6</ele>
        <time>2014-06-14T10:10:50Z</time>
      </trkpt>
      <trkpt lat="45.60074" lon="6.17003">
        <ele>1761.09</ele>
        <time>2014-06-14T10:11:04Z</time>
      </trkpt>
      <trkpt lat="45.6007" lon="6.1703">
        <ele>1759.95</ele>
        <time>2014-06-14T10:11:25Z</time>
      </trkpt>
      <trkpt lat="45.60069" lon="6.17057">
        <ele>1763.84</ele>
        <time>2014-06-14T10:12:00Z</time>
      </trkpt>
      <trkpt lat="45.60076" lon="6.17083">
        <ele>1764.14</ele>
        <time>2014-06-14T10:12:11Z</time>
      </trkpt>
      <trkpt lat="45.6007" lon="6.17107">
        <ele>1762.13</ele>
        <time>2014-06-14T10:12:18Z</time>
      </trkpt>
      <trkpt lat="45.60077" lon="6.17134">
        <ele>1771.95</ele>
        <time>2014-06-14T10:12:41Z</time>
      </trkpt>
      <trkpt lat="45.60089" lon="6.17155">
        <ele>1772.28</ele>
        <time>2014-06-14T10:12:50Z</time>
      </trkpt>
      <trkpt lat="45.60073" lon="6.17135">
        <ele>1774.51</ele>
        <time>2014-06-14T10:12:59Z</time>
      </trkpt>
      <trkpt lat="45.60064" lon="6.17158">
        <ele>1779.31</ele>
        <time>2014-06-14T10:13:23Z</time>
      </trkpt>
      <trkpt lat="45.60054" lon="6.17134">
        <ele>1789.1</ele>
        <time>2014-06-14T10:13:36Z</time>
      </trkpt>
      <trkpt lat="45.60053" lon="6.17108">
        <ele>1794.7</ele>
        <time>2014-06-14T10:13:50Z</time>
      </trkpt>
      <trkpt lat="45.60063" lon="6.17086">
        <ele>1801.34</ele>
        <time>2014-06-14T10:14:08Z</time>
      </trkpt>
      <trkpt lat="45.60074" lon="6.17065">
        <ele>1806.74</ele>
        <time>2014-06-14T10:14:46Z</time>
      </trkpt>
      <trkpt lat="45.60091" lon="6.17071">
        <ele>1808.64</ele>
        <time>2014-06-14T10:15:30Z</time>
      </trkpt>
      <trkpt lat="45.60107" lon="6.17085">
        <ele>1815.46</ele>
        <time>2014-06-14T10:15:52Z</time>
      </trkpt>
      <trkpt lat="45.60122" lon="6.17099">
        <ele>1823.46</ele>
        <time>2014-06-14T10:16:10Z</time>
      </trkpt>
      <trkpt lat="45.60129" lon="6.17123">
        <ele>1825.91</ele>
        <time>2014-06-14T10:16:40Z</time>
      </trkpt>
      <trkpt lat="45.6014" lon="6.17144">
        <ele>1827.11</ele>
        <time>2014-06-14T10:17:08Z</time>
      </trkpt>
      <trkpt lat="45.60151" lon="6.17165">
        <ele>1828.77</ele>
        <time>2014-06-14T10:17:35Z</time>
      </trkpt>
      <trkpt lat="45.60164" lon="6.17183">
        <ele>1833.44</ele>
        <time>2014-06-14T10:18:01Z</time>
      </trkpt>
      <trkpt lat="45.6018" lon="6.17198">
        <ele>1837.52</ele>
        <time>2014-06-14T10:18:33Z</time>
      </trkpt>
      <trkpt lat="45.60195" lon="6.17215">
        <ele>1842.95</ele>
        <time>2014-06-14T10:19:12Z</time>
      </trkpt>
      <trkpt lat="45.60203" lon="6.17238">
        <ele>1844.73</ele>
        <time>2014-06-14T10:19:49Z</time>
      </trkpt>
      <trkpt lat="45.60217" lon="6.17257">
        <ele>1850.64</ele>
        <time>2014-06-14T10:21:07Z</time>
      </trkpt>
      <trkpt lat="45.60221" lon="6.17281">
        <ele>1854.28</ele>
        <time>2014-06-14T10:22:57Z</time>
      </trkpt>
      <trkpt lat="45.60219" lon="6.17308">
        <ele>1857.03</ele>
        <time>2014-06-14T10:23:16Z</time>
      </trkpt>
      <trkpt lat="45.60226" lon="6.17333">
        <ele>1877.05</ele>
        <time>2014-06-14T10:24:52Z</time>
      </trkpt>
      <trkpt lat="45.60234" lon="6.17357">
        <ele>1891.89</ele>
        <time>2014-06-14T10:25:42Z</time>
      </trkpt>
      <trkpt lat="45.60236" lon="6.17382">
        <ele>1907.37</ele>
        <time>2014-06-14T10:27:24Z</time>
      </trkpt>
      <trkpt lat="45.6024" lon="6.17408">
        <ele>1921.9</ele>
        <time>2014-06-14T10:29:26Z</time>
      </trkpt>
      <trkpt lat="45.60242" lon="6.17434">
        <ele>1939.04</ele>
        <time>2014-06-14T10:31:52Z</time>
      </trkpt>
      <trkpt lat="45.60232" lon="6.17455">
        <ele>1970.94</ele>
        <time>2014-06-14T10:34:05Z</time>
      </trkpt>
      <trkpt lat="45.60214" lon="6.17453">
        <ele>1974.96</ele>
        <time>2014-06-14T10:34:54Z</time>
      </trkpt>
      <trkpt lat="45.60197" lon="6.17442">
        <ele>1980.3</ele>
        <time>2014-06-14T10:36:19Z</time>
      </trkpt>
      <trkpt lat="45.6018" lon="6.17432">
        <ele>1985.69</ele>
        <time>2014-06-14T10:37:38Z</time>
      </trkpt>
      <trkpt lat="45.60166" lon="6.17415">
        <ele>1997.56</ele>
        <time>2014-06-14T10:39:27Z</time>
      </trkpt>
      <trkpt lat="45.60151" lon="6.17401">
        <ele>2005.53</ele>
        <time>2014-06-14T10:40:44Z</time>
      </trkpt>
      <trkpt lat="45.60134" lon="6.17395">
        <ele>2010.56</ele>
        <time>2014-06-14T10:41:13Z</time>
      </trkpt>
      <trkpt lat="45.60115" lon="6.17395">
        <ele>2013.13</ele>
        <time>2014-06-14T10:41:30Z</time>
      </trkpt>
      <trkpt lat="45.60097" lon="6.17392">
        <ele>2015.27</ele>
        <time>2014-06-14T10:41:53Z</time>
      </trkpt>
      <trkpt lat="45.60082" lon="6.17377">
        <ele>2024.63</ele>
        <time>2014-06-14T10:43:10Z</time>
      </trkpt>
      <trkpt lat="45.60065" lon="6.17369">
        <ele>2028.51</ele>
        <time>2014-06-14T10:43:52Z</time>
      </trkpt>
      <trkpt lat="45.60048" lon="6.1736">
        <ele>2036.68</ele>
        <time>2014-06-14T10:49:37Z</time>
      </trkpt>
      <trkpt lat="45.60066" lon="6.17365">
        <ele>2041.13</ele>
        <time>2014-06-14T11:21:24Z</time>
      </trkpt>
      <trkpt lat="45.60082" lon="6.17379">
        <ele>2037.82</ele>
        <time>2014-06-14T11:22:06Z</time>
      </trkpt>
      <trkpt lat="45.60098" lon="6.17391">
        <ele>2031.12</ele>
        <time>2014-06-14T11:22:34Z</time>
      </trkpt>
      <trkpt lat="45.60116" lon="6.17387">
        <ele>2032.07</ele>
        <time>2014-06-14T11:23:03Z</time>
      </trkpt>
      <trkpt lat="45.60134" lon="6.1739">
        <ele>2029.85</ele>
        <time>2014-06-14T11:23:40Z</time>
      </trkpt>
      <trkpt lat="45.60149" lon="6.17406">
        <ele>2024.2</ele>
        <time>2014-06-14T11:24:19Z</time>
      </trkpt>
      <trkpt lat="45.60167" lon="6.17413">
        <ele>2008.65</ele>
        <time>2014-06-14T11:25:04Z</time>
      </trkpt>
      <trkpt lat="45.60183" lon="6.17426">
        <ele>1999.82</ele>
        <time>2014-06-14T11:25:42Z</time>
      </trkpt>
      <trkpt lat="45.60197" lon="6.17442">
        <ele>1989.7</ele>
        <time>2014-06-14T11:27:17Z</time>
      </trkpt>
      <trkpt lat="45.60215" lon="6.17448">
        <ele>1984.96</ele>
        <time>2014-06-14T11:27:58Z</time>
      </trkpt>
      <trkpt lat="45.60233" lon="6.17453">
        <ele>1977.72</ele>
        <time>2014-06-14T11:28:28Z</time>
      </trkpt>
      <trkpt lat="45.60237" lon="6.17428">
        <ele>1962.65</ele>
        <time>2014-06-14T11:35:05Z</time>
      </trkpt>
      <trkpt lat="45.60252" lon="6.17444">
        <ele>1963.49</ele>
        <time>2014-06-14T11:37:10Z</time>
      </trkpt>
      <trkpt lat="45.60247" lon="6.17419">
        <ele>1961.14</ele>
        <time>2014-06-14T11:46:48Z</time>
      </trkpt>
      <trkpt lat="45.6025" lon="6.17392">
        <ele>1962.11</ele>
        <time>2014-06-14T11:47:08Z</time>
      </trkpt>
      <trkpt lat="45.60255" lon="6.17367">
        <ele>1952.84</ele>
        <time>2014-06-14T11:48:52Z</time>
      </trkpt>
      <trkpt lat="45.6024" lon="6.17353">
        <ele>1947.48</ele>
        <time>2014-06-14T11:50:37Z</time>
      </trkpt>
      <trkpt lat="45.60227" lon="6.17335">
        <ele>1942.9</ele>
        <time>2014-06-14T11:50:52Z</time>
      </trkpt>
      <trkpt lat="45.60228" lon="6.17309">
        <ele>1931.02</ele>
        <time>2014-06-14T11:51:20Z</time>
      </trkpt>
      <trkpt lat="45.60239" lon="6.17285">
        <ele>1918.67</ele>
        <time>2014-06-14T11:51:52Z</time>
      </trkpt>
      <trkpt lat="45.60226" lon="6.17266">
        <ele>1910.6</ele>
        <time>2014-06-14T11:53:24Z</time>
      </trkpt>
      <trkpt lat="45.60216" lon="6.17244">
        <ele>1909.24</ele>
        <time>2014-06-14T11:53:49Z</time>
      </trkpt>
      <trkpt lat="45.60219" lon="6.17218">
        <ele>1908.27</ele>
        <time>2014-06-14T11:54:17Z</time>
      </trkpt>
      <trkpt lat="45.60206" lon="6.17198">
        <ele>1904.19</ele>
        <time>2014-06-14T11:54:48Z</time>
      </trkpt>
      <trkpt lat="45.60188" lon="6.17194">
        <ele>1895.52</ele>
        <time>2014-06-14T11:54:59Z</time>
      </trkpt>
      <trkpt lat="45.60182" lon="6.17169">
        <ele>1885.66</ele>
        <time>2014-06-14T11:55:44Z</time>
      </trkpt>
      <trkpt lat="45.60167" lon="6.17152">
        <ele>1878.94</ele>
        <time>2014-06-14T11:56:01Z</time>
      </trkpt>
      <trkpt lat="45.60149" lon="6.17145">
        <ele>1871.14</ele>
        <time>2014-06-14T11:56:21Z</time>
      </trkpt>
      <trkpt lat="45.60139" lon="6.17123">
        <ele>1869.2</ele>
        <time>2014-06-14T11:56:37Z</time>
      </trkpt>
      <trkpt lat="45.60122" lon="6.17113">
        <ele>1864.69</ele>
        <time>2014-06-14T11:56:46Z</time>
      </trkpt>
      <trkpt lat="45.6011" lon="6.17091">
        <ele>1858.93</ele>
        <time>2014-06-14T11:56:59Z</time>
      </trkpt>
      <trkpt lat="45.60096" lon="6.17075">
        <ele>1853.13</ele>
        <time>2014-06-14T11:57:10Z</time>
      </trkpt>
      <trkpt lat="45.60078" lon="6.17068">
        <ele>1840.03</ele>
        <time>2014-06-14T11:57:39Z</time>
      </trkpt>
      <trkpt lat="45.60059" lon="6.17078">
        <ele>1828.63</ele>
        <time>2014-06-14T11:58:00Z</time>
      </trkpt>
      <trkpt lat="45.60041" lon="6.17089">
        <ele>1819.64</ele>
        <time>2014-06-14T11:58:23Z</time>
      </trkpt>
      <trkpt lat="45.60038" lon="6.17063">
        <ele>1812.14</ele>
        <time>2014-06-14T11:58:46Z</time>
      </trkpt>
      <trkpt lat="45.60032" lon="6.17038">
        <ele>1811.98</ele>
        <time>2014-06-14T11:59:01Z</time>
      </trkpt>
      <trkpt lat="45.60037" lon="6.17013">
        <ele>1811.48</ele>
        <time>2014-06-14T11:59:24Z</time>
      </trkpt>
      <trkpt lat="45.60042" lon="6.16988">
        <ele>1811.43</ele>
        <time>2014-06-14T11:59:41Z</time>
      </trkpt>
      <trkpt lat="45.60048" lon="6.16963">
        <ele>1807.2</ele>
        <time>2014-06-14T11:59:51Z</time>
      </trkpt>
      <trkpt lat="45.60057" lon="6.1694">
        <ele>1797.57</ele>
        <time>2014-06-14T12:00:07Z</time>
      </trkpt>
      <trkpt lat="45.60068" lon="6.16919">
        <ele>1793.35</ele>
        <time>2014-06-14T12:00:23Z</time>
      </trkpt>
      <trkpt lat="45.60083" lon="6.16906">
        <ele>1790.97</ele>
        <time>2014-06-14T12:00:39Z</time>
      </trkpt>
      <trkpt lat="45.60064" lon="6.16905">
        <ele>1770.46</ele>
        <time>2014-06-14T12:01:29Z</time>
      </trkpt>
      <trkpt lat="45.60046" lon="6.16903">
        <ele>1764.19</ele>
        <time>2014-06-14T12:01:53Z</time>
      </trkpt>
      <trkpt lat="45.60052" lon="6.16878">
        <ele>1761.32</ele>
        <time>2014-06-14T12:02:09Z</time>
      </trkpt>
      <trkpt lat="45.60066" lon="6.16861">
        <ele>1759.27</ele>
        <time>2014-06-14T12:02:25Z</time>
      </trkpt>
      <trkpt lat="45.6008" lon="6.16844">
        <ele>1757.23</ele>
        <time>2014-06-14T12:02:41Z</time>
      </trkpt>
      <trkpt lat="45.60098" lon="6.16837">
        <ele>1754.9</ele>
        <time>2014-06-14T12:02:55Z</time>
      </trkpt>
      <trkpt lat="45.60117" lon="6.16834">
        <ele>1749.27</ele>
        <time>2014-06-14T12:03:11Z</time>
      </trkpt>
      <trkpt lat="45.60102" lon="6.16817">
        <ele>1736.48</ele>
        <time>2014-06-14T12:03:53Z</time>
      </trkpt>
      <trkpt lat="45.60086" lon="6.16806">
        <ele>1735.98</ele>
        <time>2014-06-14T12:04:06Z</time>
      </trkpt>
      <trkpt lat="45.60068" lon="6.16808">
        <ele>1734.52</ele>
        <time>2014-06-14T12:04:21Z</time>
      </trkpt>
      <trkpt lat="45.6008" lon="6.16788">
        <ele>1730.66</ele>
        <time>2014-06-14T12:04:38Z</time>
      </trkpt>
      <trkpt lat="45.60093" lon="6.16769">
        <ele>1730.38</ele>
        <time>2014-06-14T12:04:51Z</time>
      </trkpt>
      <trkpt lat="45.60109" lon="6.16756">
        <ele>1728.7</ele>
        <time>2014-06-14T12:05:09Z</time>
      </trkpt>
      <trkpt lat="45.60127" lon="6.1675">
        <ele>1724.37</ele>
        <time>2014-06-14T12:05:31Z</time>
      </trkpt>
      <trkpt lat="45.60143" lon="6.16761">
        <ele>1718.88</ele>
        <time>2014-06-14T12:05:43Z</time>
      </trkpt>
      <trkpt lat="45.60158" lon="6.16745">
        <ele>1706.95</ele>
        <time>2014-06-14T12:06:10Z</time>
      </trkpt>
      <trkpt lat="45.60144" lon="6.16727">
        <ele>1703.36</ele>
        <time>2014-06-14T12:06:27Z</time>
      </trkpt>
      <trkpt lat="45.6013" lon="6.16711">
        <ele>1699.8</ele>
        <time>2014-06-14T12:06:43Z</time>
      </trkpt>
      <trkpt lat="45.60144" lon="6.16696">
        <ele>1688.38</ele>
        <time>2014-06-14T12:07:08Z</time>
      </trkpt>
      <trkpt lat="45.60163" lon="6.16699">
        <ele>1685.69</ele>
        <time>2014-06-14T12:07:26Z</time>
      </trkpt>
      <trkpt lat="45.60159" lon="6.16674">
        <ele>1675.5</ele>
        <time>2014-06-14T12:07:56Z</time>
      </trkpt>
      <trkpt lat="45.60149" lon="6.16652">
        <ele>1670.67</ele>
        <time>2014-06-14T12:08:12Z</time>
      </trkpt>
      <trkpt lat="45.60131" lon="6.16648">
        <ele>1668.47</ele>
        <time>2014-06-14T12:08:27Z</time>
      </trkpt>
      <trkpt lat="45.6014" lon="6.16625">
        <ele>1658.28</ele>
        <time>2014-06-14T12:08:49Z</time>
      </trkpt>
      <trkpt lat="45.60157" lon="6.16616">
        <ele>1653.88</ele>
        <time>2014-06-14T12:10:15Z</time>
      </trkpt>
      <trkpt lat="45.60175" lon="6.1662">
        <ele>1648.39</ele>
        <time>2014-06-14T12:10:30Z</time>
      </trkpt>
      <trkpt lat="45.60187" lon="6.16599">
        <ele>1638.86</ele>
        <time>2014-06-14T12:10:58Z</time>
      </trkpt>
      <trkpt lat="45.60168" lon="6.16595">
        <ele>1635.43</ele>
        <time>2014-06-14T12:11:32Z</time>
      </trkpt>
      <trkpt lat="45.6015" lon="6.16595">
        <ele>1632.16</ele>
        <time>2014-06-14T12:11:55Z</time>
      </trkpt>
      <trkpt lat="45.60133" lon="6.16585">
        <ele>1626.17</ele>
        <time>2014-06-14T12:12:01Z</time>
      </trkpt>
      <trkpt lat="45.60128" lon="6.1656">
        <ele>1623.84</ele>
        <time>2014-06-14T12:12:16Z</time>
      </trkpt>
      <trkpt lat="45.6014" lon="6.16541">
        <ele>1624.37</ele>
        <time>2014-06-14T12:12:36Z</time>
      </trkpt>
      <trkpt lat="45.60158" lon="6.16535">
        <ele>1623.56</ele>
        <time>2014-06-14T12:12:57Z</time>
      </trkpt>
      <trkpt lat="45.60175" lon="6.1652">
        <ele>1622.08</ele>
        <time>2014-06-14T12:13:07Z</time>
      </trkpt>
      <trkpt lat="45.60192" lon="6.16509">
        <ele>1620.73</ele>
        <time>2014-06-14T12:13:21Z</time>
      </trkpt>
      <trkpt lat="45.60208" lon="6.16496">
        <ele>1620.5</ele>
        <time>2014-06-14T12:13:36Z</time>
      </trkpt>
      <trkpt lat="45.60237" lon="6.16512">
        <ele>1607.44</ele>
        <time>2014-06-14T12:13:43Z</time>
      </trkpt>
      <trkpt lat="45.60218" lon="6.16511">
        <ele>1601.5</ele>
        <time>2014-06-14T12:14:19Z</time>
      </trkpt>
      <trkpt lat="45.60202" lon="6.16496">
        <ele>1600.66</ele>
        <time>2014-06-14T12:14:29Z</time>
      </trkpt>
      <trkpt lat="45.60184" lon="6.16502">
        <ele>1598.24</ele>
        <time>2014-06-14T12:15:31Z</time>
      </trkpt>
      <trkpt lat="45.60155" lon="6.16508">
        <ele>1598.01</ele>
        <time>2014-06-14T12:15:37Z</time>
      </trkpt>
      <trkpt lat="45.60125" lon="6.16508">
        <ele>1596.1</ele>
        <time>2014-06-14T12:15:45Z</time>
      </trkpt>
      <trkpt lat="45.6009" lon="6.16474">
        <ele>1594.36</ele>
        <time>2014-06-14T12:15:50Z</time>
      </trkpt>
      <trkpt lat="45.60092" lon="6.16448">
        <ele>1590.65</ele>
        <time>2014-06-14T12:16:16Z</time>
      </trkpt>
      <trkpt lat="45.60107" lon="6.16433">
        <ele>1587.69</ele>
        <time>2014-06-14T12:16:35Z</time>
      </trkpt>
      <trkpt lat="45.60124" lon="6.16424">
        <ele>1582.8</ele>
        <time>2014-06-14T12:16:53Z</time>
      </trkpt>
      <trkpt lat="45.60141" lon="6.16413">
        <ele>1580.92</ele>
        <time>2014-06-14T12:17:12Z</time>
      </trkpt>
      <trkpt lat="45.6016" lon="6.16415">
        <ele>1579.95</ele>
        <time>2014-06-14T12:17:27Z</time>
      </trkpt>
      <trkpt lat="45.60178" lon="6.16409">
        <ele>1575.65</ele>
        <time>2014-06-14T12:17:46Z</time>
      </trkpt>
      <trkpt lat="45.60195" lon="6.16401">
        <ele>1573.85</ele>
        <time>2014-06-14T12:18:00Z</time>
      </trkpt>
      <trkpt lat="45.60215" lon="6.16399">
        <ele>1573.86</ele>
        <time>2014-06-14T12:18:16Z</time>
      </trkpt>
      <trkpt lat="45.6023" lon="6.16385">
        <ele>1570.52</ele>
        <time>2014-06-14T12:18:32Z</time>
      </trkpt>
      <trkpt lat="45.60248" lon="6.16377">
        <ele>1571.19</ele>
        <time>2014-06-14T12:18:44Z</time>
      </trkpt>
      <trkpt lat="45.60266" lon="6.16372">
        <ele>1567.01</ele>
        <time>2014-06-14T12:18:58Z</time>
      </trkpt>
      <trkpt lat="45.60284" lon="6.16366">
        <ele>1563.44</ele>
        <time>2014-06-14T12:19:19Z</time>
      </trkpt>
      <trkpt lat="45.60302" lon="6.16373">
        <ele>1561.21</ele>
        <time>2014-06-14T12:19:48Z</time>
      </trkpt>
      <trkpt lat="45.60295" lon="6.16349">
        <ele>1554.98</ele>
        <time>2014-06-14T12:20:17Z</time>
      </trkpt>
      <trkpt lat="45.60287" lon="6.16325">
        <ele>1547.94</ele>
        <time>2014-06-14T12:20:45Z</time>
      </trkpt>
      <trkpt lat="45.60268" lon="6.1633">
        <ele>1545.09</ele>
        <time>2014-06-14T12:21:04Z</time>
      </trkpt>
      <trkpt lat="45.60249" lon="6.16323">
        <ele>1542.77</ele>
        <time>2014-06-14T12:21:10Z</time>
      </trkpt>
      <trkpt lat="45.6023" lon="6.1632">
        <ele>1541.72</ele>
        <time>2014-06-14T12:21:19Z</time>
      </trkpt>
      <trkpt lat="45.60211" lon="6.16311">
        <ele>1538.4</ele>
        <time>2014-06-14T12:21:54Z</time>
      </trkpt>
      <trkpt lat="45.60193" lon="6.16304">
        <ele>1534.51</ele>
        <time>2014-06-14T12:22:06Z</time>
      </trkpt>
      <trkpt lat="45.60156" lon="6.16303">
        <ele>1527.93</ele>
        <time>2014-06-14T12:23:03Z</time>
      </trkpt>
      <trkpt lat="45.6011" lon="6.16298">
        <ele>1524.58</ele>
        <time>2014-06-14T12:23:16Z</time>
      </trkpt>
      <trkpt lat="45.60092" lon="6.16287">
        <ele>1507.13</ele>
        <time>2014-06-14T12:23:44Z</time>
      </trkpt>
      <trkpt lat="45.60077" lon="6.16302">
        <ele>1489.09</ele>
        <time>2014-06-14T12:23:54Z</time>
      </trkpt>
      <trkpt lat="45.60058" lon="6.16295">
        <ele>1483.23</ele>
        <time>2014-06-14T12:24:11Z</time>
      </trkpt>
      <trkpt lat="45.60039" lon="6.16297">
        <ele>1483.37</ele>
        <time>2014-06-14T12:24:22Z</time>
      </trkpt>
      <trkpt lat="45.60055" lon="6.16282">
        <ele>1470.7</ele>
        <time>2014-06-14T12:25:32Z</time>
      </trkpt>
      <trkpt lat="45.60074" lon="6.16275">
        <ele>1472.53</ele>
        <time>2014-06-14T12:25:48Z</time>
      </trkpt>
      <trkpt lat="45.60087" lon="6.16256">
        <ele>1473.09</ele>
        <time>2014-06-14T12:26:05Z</time>
      </trkpt>
      <trkpt lat="45.60106" lon="6.16253">
        <ele>1470.04</ele>
        <time>2014-06-14T12:26:17Z</time>
      </trkpt>
      <trkpt lat="45.60121" lon="6.16239">
        <ele>1464.78</ele>
        <time>2014-06-14T12:27:06Z</time>
      </trkpt>
      <trkpt lat="45.60139" lon="6.16229">
        <ele>1463.26</ele>
        <time>2014-06-14T12:27:21Z</time>
      </trkpt>
      <trkpt lat="45.60158" lon="6.16231">
        <ele>1458.27</ele>
        <time>2014-06-14T12:27:30Z</time>
      </trkpt>
      <trkpt lat="45.60176" lon="6.16228">
        <ele>1453.1</ele>
        <time>2014-06-14T12:27:42Z</time>
      </trkpt>
      <trkpt lat="45.60194" lon="6.16223">
        <ele>1453.11</ele>
        <time>2014-06-14T12:27:54Z</time>
      </trkpt>
      <trkpt lat="45.60213" lon="6.16228">
        <ele>1450.67</ele>
        <time>2014-06-14T12:28:08Z</time>
      </trkpt>
      <trkpt lat="45.60231" lon="6.16233">
        <ele>1449.88</ele>
        <time>2014-06-14T12:28:28Z</time>
      </trkpt>
      <trkpt lat="45.60249" lon="6.16225">
        <ele>1450.04</ele>
        <time>2014-06-14T12:28:43Z</time>
      </trkpt>
      <trkpt lat="45.60263" lon="6.16209">
        <ele>1448.56</ele>
        <time>2014-06-14T12:28:53Z</time>
      </trkpt>
      <trkpt lat="45.60282" lon="6.16204">
        <ele>1438.98</ele>
        <time>2014-06-14T12:29:14Z</time>
      </trkpt>
      <trkpt lat="45.60302" lon="6.16199">
        <ele>1435.71</ele>
        <time>2014-06-14T12:29:28Z</time>
      </trkpt>
      <trkpt lat="45.6032" lon="6.16207">
        <ele>1434.6</ele>
        <time>2014-06-14T12:29:39Z</time>
      </trkpt>
      <trkpt lat="45.60337" lon="6.16211">
        <ele>1432.67</ele>
        <time>2014-06-14T12:29:55Z</time>
      </trkpt>
      <trkpt lat="45.60356" lon="6.1621">
        <ele>1431.4</ele>
        <time>2014-06-14T12:30:07Z</time>
      </trkpt>
      <trkpt lat="45.60371" lon="6.16194">
        <ele>1429.57</ele>
        <time>2014-06-14T12:30:27Z</time>
      </trkpt>
      <trkpt lat="45.60377" lon="6.16167">
        <ele>1429.24</ele>
        <time>2014-06-14T12:30:39Z</time>
      </trkpt>
      <trkpt lat="45.6039" lon="6.16147">
        <ele>1428.47</ele>
        <time>2014-06-14T12:31:02Z</time>
      </trkpt>
      <trkpt lat="45.60401" lon="6.16124">
        <ele>1428.11</ele>
        <time>2014-06-14T12:31:16Z</time>
      </trkpt>
      <trkpt lat="45.60417" lon="6.16111">
        <ele>1427.37</ele>
        <time>2014-06-14T12:31:33Z</time>
      </trkpt>
      <trkpt lat="45.60428" lon="6.16091">
        <ele>1425.89</ele>
        <time>2014-06-14T12:31:44Z</time>
      </trkpt>
      <trkpt lat="45.60444" lon="6.16076">
        <ele>1416.54</ele>
        <time>2014-06-14T12:31:53Z</time>
      </trkpt>
      <trkpt lat="45.60462" lon="6.16084">
        <ele>1405.68</ele>
        <time>2014-06-14T12:32:02Z</time>
      </trkpt>
      <trkpt lat="45.60474" lon="6.16063">
        <ele>1389.87</ele>
        <time>2014-06-14T12:32:45Z</time>
      </trkpt>
      <trkpt lat="45.60478" lon="6.16038">
        <ele>1384.67</ele>
        <time>2014-06-14T12:32:57Z</time>
      </trkpt>
      <trkpt lat="45.60485" lon="6.16014">
        <ele>1363.7</ele>
        <time>2014-06-14T12:37:00Z</time>
      </trkpt>
      <trkpt lat="45.60482" lon="6.15987">
        <ele>1358.96</ele>
        <time>2014-06-14T12:37:18Z</time>
      </trkpt>
      <trkpt lat="45.60476" lon="6.15963">
        <ele>1358.35</ele>
        <time>2014-06-14T12:37:37Z</time>
      </trkpt>
      <trkpt lat="45.60464" lon="6.15941">
        <ele>1349.85</ele>
        <time>2014-06-14T12:38:43Z</time>
      </trkpt>
      <trkpt lat="45.60455" lon="6.15918">
        <ele>1348.26</ele>
        <time>2014-06-14T12:38:53Z</time>
      </trkpt>
      <trkpt lat="45.60446" lon="6.15895">
        <ele>1340.91</ele>
        <time>2014-06-14T12:39:03Z</time>
      </trkpt>
      <trkpt lat="45.60435" lon="6.15874">
        <ele>1340.04</ele>
        <time>2014-06-14T12:39:14Z</time>
      </trkpt>
      <trkpt lat="45.60422" lon="6.15854">
        <ele>1337.34</ele>
        <time>2014-06-14T12:39:26Z</time>
      </trkpt>
      <trkpt lat="45.60407" lon="6.15837">
        <ele>1339.44</ele>
        <time>2014-06-14T12:39:38Z</time>
      </trkpt>
      <trkpt lat="45.60415" lon="6.15812">
        <ele>1341.13</ele>
        <time>2014-06-14T12:42:39Z</time>
      </trkpt>
      <trkpt lat="45.60412" lon="6.15786">
        <ele>1362.71</ele>
        <time>2014-06-14T12:45:59Z</time>
      </trkpt>
      <trkpt lat="45.60404" lon="6.15763">
        <ele>1373.28</ele>
        <time>2014-06-14T12:46:15Z</time>
      </trkpt>
      <trkpt lat="45.60394" lon="6.1574">
        <ele>1381.29</ele>
        <time>2014-06-14T12:46:35Z</time>
      </trkpt>
      <trkpt lat="45.60385" lon="6.15717">
        <ele>1387.54</ele>
        <time>2014-06-14T12:46:57Z</time>
      </trkpt>
      <trkpt lat="45.60377" lon="6.15693">
        <ele>1387.72</ele>
        <time>2014-06-14T12:47:17Z</time>
      </trkpt>
      <trkpt lat="45.60384" lon="6.15669">
        <ele>1390.3</ele>
        <time>2014-06-14T12:47:38Z</time>
      </trkpt>
      <trkpt lat="45.6038" lon="6.15643">
        <ele>1386.86</ele>
        <time>2014-06-14T12:48:26Z</time>
      </trkpt>
      <trkpt lat="45.60366" lon="6.15627">
        <ele>1383.66</ele>
        <time>2014-06-14T12:48:41Z</time>
      </trkpt>
      <trkpt lat="45.6035" lon="6.15612">
        <ele>1380.22</ele>
        <time>2014-06-14T12:48:57Z</time>
      </trkpt>
      <trkpt lat="45.60336" lon="6.15595">
        <ele>1381.34</ele>
        <time>2014-06-14T12:49:12Z</time>
      </trkpt>
      <trkpt lat="45.60328" lon="6.15572">
        <ele>1374.98</ele>
        <time>2014-06-14T12:49:31Z</time>
      </trkpt>
      <trkpt lat="45.60319" lon="6.15548">
        <ele>1371.31</ele>
        <time>2014-06-14T12:49:48Z</time>
      </trkpt>
      <trkpt lat="45.60307" lon="6.15528">
        <ele>1369.38</ele>
        <time>2014-06-14T12:50:02Z</time>
      </trkpt>
      <trkpt lat="45.60293" lon="6.1551">
        <ele>1365.86</ele>
        <time>2014-06-14T12:50:18Z</time>
      </trkpt>
      <trkpt lat="45.60278" lon="6.15492">
        <ele>1362.94</ele>
        <time>2014-06-14T12:50:33Z</time>
      </trkpt>
      <trkpt lat="45.60263" lon="6.15478">
        <ele>1361.39</ele>
        <time>2014-06-14T12:50:49Z</time>
      </trkpt>
      <trkpt lat="45.60249" lon="6.15462">
        <ele>1360.47</ele>
        <time>2014-06-14T12:51:04Z</time>
      </trkpt>
      <trkpt lat="45.6023" lon="6.15459">
        <ele>1349.33</ele>
        <time>2014-06-14T12:52:08Z</time>
      </trkpt>
      <trkpt lat="45.60215" lon="6.15444">
        <ele>1347.27</ele>
        <time>2014-06-14T12:52:23Z</time>
      </trkpt>
      <trkpt lat="45.60198" lon="6.1543">
        <ele>1345.71</ele>
        <time>2014-06-14T12:52:38Z</time>
      </trkpt>
      <trkpt lat="45.6018" lon="6.15431">
        <ele>1334.66</ele>
        <time>2014-06-14T12:53:00Z</time>
      </trkpt>
      <trkpt lat="45.60162" lon="6.15422">
        <ele>1330.96</ele>
        <time>2014-06-14T12:53:21Z</time>
      </trkpt>
      <trkpt lat="45.60151" lon="6.15402">
        <ele>1328.98</ele>
        <time>2014-06-14T12:53:58Z</time>
      </trkpt>
      <trkpt lat="45.60148" lon="6.15375">
        <ele>1325.09</ele>
        <time>2014-06-14T12:54:14Z</time>
      </trkpt>
      <trkpt lat="45.60141" lon="6.1535">
        <ele>1322.67</ele>
        <time>2014-06-14T12:54:58Z</time>
      </trkpt>
      <trkpt lat="45.60128" lon="6.15332">
        <ele>1322.21</ele>
        <time>2014-06-14T12:55:13Z</time>
      </trkpt>
      <trkpt lat="45.60113" lon="6.15317">
        <ele>1322.57</ele>
        <time>2014-06-14T12:55:30Z</time>
      </trkpt>
      <trkpt lat="45.60098" lon="6.153">
        <ele>1321.61</ele>
        <time>2014-06-14T12:55:44Z</time>
      </trkpt>
      <trkpt lat="45.60085" lon="6.15281">
        <ele>1322.96</ele>
        <time>2014-06-14T12:55:59Z</time>
      </trkpt>
      <trkpt lat="45.60074" lon="6.1526">
        <ele>1318.84</ele>
        <time>2014-06-14T12:56:31Z</time>
      </trkpt>
      <trkpt lat="45.6006" lon="6.15244">
        <ele>1315.83</ele>
        <time>2014-06-14T12:56:46Z</time>
      </trkpt>
      <trkpt lat="45.60044" lon="6.15231">
        <ele>1312.78</ele>
        <time>2014-06-14T12:57:02Z</time>
      </trkpt>
      <trkpt lat="45.60027" lon="6.15218">
        <ele>1311.91</ele>
        <time>2014-06-14T12:57:31Z</time>
      </trkpt>
      <trkpt lat="45.60014" lon="6.15201">
        <ele>1307.67</ele>
        <time>2014-06-14T12:57:43Z</time>
      </trkpt>
      <trkpt lat="45.59996" lon="6.15191">
        <ele>1306.85</ele>
        <time>2014-06-14T12:57:55Z</time>
      </trkpt>
      <trkpt lat="45.59979" lon="6.15182">
        <ele>1302.66</ele>
        <time>2014-06-14T12:58:10Z</time>
      </trkpt>
      <trkpt lat="45.59962" lon="6.1517">
        <ele>1292.67</ele>
        <time>2014-06-14T12:58:52Z</time>
      </trkpt>
      <trkpt lat="45.59942" lon="6.15157">
        <ele>1287.72</ele>
        <time>2014-06-14T12:59:48Z</time>
      </trkpt>
      <trkpt lat="45.59923" lon="6.15137">
        <ele>1284.45</ele>
        <time>2014-06-14T12:59:52Z</time>
      </trkpt>
      <trkpt lat="45.59908" lon="6.15121">
        <ele>1282.38</ele>
        <time>2014-06-14T12:59:56Z</time>
      </trkpt>
      <trkpt lat="45.59891" lon="6.15104">
        <ele>1281.32</ele>
        <time>2014-06-14T13:00:03Z</time>
      </trkpt>
      <trkpt lat="45.59875" lon="6.15088">
        <ele>1282.17</ele>
        <time>2014-06-14T13:00:09Z</time>
      </trkpt>
      <trkpt lat="45.59861" lon="6.15071">
        <ele>1269.86</ele>
        <time>2014-06-14T13:00:26Z</time>
      </trkpt>
      <trkpt lat="45.59844" lon="6.15063">
        <ele>1269.76</ele>
        <time>2014-06-14T13:00:46Z</time>
      </trkpt>
      <trkpt lat="45.59827" lon="6.15054">
        <ele>1269.25</ele>
        <time>2014-06-14T13:01:02Z</time>
      </trkpt>
      <trkpt lat="45.59809" lon="6.15043">
        <ele>1267.25</ele>
        <time>2014-06-14T13:01:19Z</time>
      </trkpt>
      <trkpt lat="45.59793" lon="6.15032">
        <ele>1264.93</ele>
        <time>2014-06-14T13:01:41Z</time>
      </trkpt>
      <trkpt lat="45.59776" lon="6.1502">
        <ele>1265.58</ele>
        <time>2014-06-14T13:01:58Z</time>
      </trkpt>
      <trkpt lat="45.59759" lon="6.15006">
        <ele>1264.91</ele>
        <time>2014-06-14T13:02:07Z</time>
      </trkpt>
      <trkpt lat="45.59747" lon="6.14983">
        <ele>1265.2</ele>
        <time>2014-06-14T13:02:20Z</time>
      </trkpt>
      <trkpt lat="45.59734" lon="6.14963">
        <ele>1266.87</ele>
        <time>2014-06-14T13:02:33Z</time>
      </trkpt>
      <trkpt lat="45.5972" lon="6.14946">
        <ele>1266.98</ele>
        <time>2014-06-14T13:02:51Z</time>
      </trkpt>
      <trkpt lat="45.59702" lon="6.14943">
        <ele>1266.99</ele>
        <time>2014-06-14T13:03:12Z</time>
      </trkpt>
      <trkpt lat="45.59686" lon="6.14931">
        <ele>1266.57</ele>
        <time>2014-06-14T13:03:51Z</time>
      </trkpt>
      <trkpt lat="45.59669" lon="6.14919">
        <ele>1264.21</ele>
        <time>2014-06-14T13:04:02Z</time>
      </trkpt>
      <trkpt lat="45.5965" lon="6.14914">
        <ele>1266.43</ele>
        <time>2014-06-14T13:04:44Z</time>
      </trkpt>
      <trkpt lat="45.59632" lon="6.14911">
        <ele>1266.13</ele>
        <time>2014-06-14T13:04:53Z</time>
      </trkpt>
      <trkpt lat="45.59613" lon="6.14913">
        <ele>1263.39</ele>
        <time>2014-06-14T13:05:02Z</time>
      </trkpt>
      <trkpt lat="45.59594" lon="6.1491">
        <ele>1259.52</ele>
        <time>2014-06-14T13:05:15Z</time>
      </trkpt>
      <trkpt lat="45.59577" lon="6.14903">
        <ele>1254.93</ele>
        <time>2014-06-14T13:05:28Z</time>
      </trkpt>
      <trkpt lat="45.59558" lon="6.14897">
        <ele>1248.37</ele>
        <time>2014-06-14T13:06:04Z</time>
      </trkpt>
      <trkpt lat="45.59539" lon="6.14892">
        <ele>1246.68</ele>
        <time>2014-06-14T13:06:13Z</time>
      </trkpt>
      <trkpt lat="45.5952" lon="6.14887">
        <ele>1246.58</ele>
        <time>2014-06-14T13:06:31Z</time>
      </trkpt>
      <trkpt lat="45.59503" lon="6.14892">
        <ele>1243.42</ele>
        <time>2014-06-14T13:07:07Z</time>
      </trkpt>
      <trkpt lat="45.59486" lon="6.14901">
        <ele>1237.04</ele>
        <time>2014-06-14T13:07:20Z</time>
      </trkpt>
      <trkpt lat="45.59467" lon="6.14899">
        <ele>1225.26</ele>
        <time>2014-06-14T13:08:02Z</time>
      </trkpt>
      <trkpt lat="45.59448" lon="6.14902">
        <ele>1221.65</ele>
        <time>2014-06-14T13:08:13Z</time>
      </trkpt>
      <trkpt lat="45.5943" lon="6.14899">
        <ele>1218.67</ele>
        <time>2014-06-14T13:08:58Z</time>
      </trkpt>
      <trkpt lat="45.59394" lon="6.14901">
        <ele>1215.77</ele>
        <time>2014-06-14T13:09:06Z</time>
      </trkpt>
      <trkpt lat="45.59376" lon="6.14902">
        <ele>1207.04</ele>
        <time>2014-06-14T13:09:17Z</time>
      </trkpt>
      <trkpt lat="45.59358" lon="6.149">
        <ele>1194.02</ele>
        <time>2014-06-14T13:09:57Z</time>
      </trkpt>
      <trkpt lat="45.5934" lon="6.14896">
        <ele>1185.31</ele>
        <time>2014-06-14T13:10:15Z</time>
      </trkpt>
      <trkpt lat="45.59321" lon="6.1489">
        <ele>1184.55</ele>
        <time>2014-06-14T13:10:30Z</time>
      </trkpt>
      <trkpt lat="45.59303" lon="6.14885">
        <ele>1179.73</ele>
        <time>2014-06-14T13:11:11Z</time>
      </trkpt>
      <trkpt lat="45.59286" lon="6.14879">
        <ele>1172.48</ele>
        <time>2014-06-14T13:11:37Z</time>
      </trkpt>
      <trkpt lat="45.59266" lon="6.14878">
        <ele>1161.84</ele>
        <time>2014-06-14T13:12:00Z</time>
      </trkpt>
      <trkpt lat="45.59248" lon="6.14871">
        <ele>1153.6</ele>
        <time>2014-06-14T13:12:49Z</time>
      </trkpt>
      <trkpt lat="45.59235" lon="6.14853">
        <ele>1150.99</ele>
        <time>2014-06-14T13:13:05Z</time>
      </trkpt>
      <trkpt lat="45.59224" lon="6.14832">
        <ele>1150.8</ele>
        <time>2014-06-14T13:14:59Z</time>
      </trkpt>
      <trkpt lat="45.59206" lon="6.14823">
        <ele>1140.17</ele>
        <time>2014-06-14T13:15:58Z</time>
      </trkpt>
      <trkpt lat="45.5919" lon="6.14813">
        <ele>1138.72</ele>
        <time>2014-06-14T13:16:32Z</time>
      </trkpt>
      <trkpt lat="45.59171" lon="6.14819">
        <ele>1131.04</ele>
        <time>2014-06-14T13:16:56Z</time>
      </trkpt>
      <trkpt lat="45.59154" lon="6.14811">
        <ele>1128.86</ele>
        <time>2014-06-14T13:17:59Z</time>
      </trkpt>
      <trkpt lat="45.59136" lon="6.14808">
        <ele>1128.06</ele>
        <time>2014-06-14T13:18:31Z</time>
      </trkpt>
      <trkpt lat="45.59118" lon="6.148">
        <ele>1124.12</ele>
        <time>2014-06-14T13:18:43Z</time>
      </trkpt>
      <trkpt lat="45.591" lon="6.14799">
        <ele>1121.75</ele>
        <time>2014-06-14T13:19:06Z</time>
      </trkpt>
      <trkpt lat="45.59079" lon="6.14796">
        <ele>1119.62</ele>
        <time>2014-06-14T13:19:16Z</time>
      </trkpt>
      <trkpt lat="45.5906" lon="6.14795">
        <ele>1098.39</ele>
        <time>2014-06-14T13:19:23Z</time>
      </trkpt>
      <trkpt lat="45.59041" lon="6.14791">
        <ele>1093.42</ele>
        <time>2014-06-14T13:19:37Z</time>
      </trkpt>
      <trkpt lat="45.59023" lon="6.14789">
        <ele>1084.64</ele>
        <time>2014-06-14T13:20:00Z</time>
      </trkpt>
      <trkpt lat="45.59005" lon="6.14786">
        <ele>1074.67</ele>
        <time>2014-06-14T13:20:22Z</time>
      </trkpt>
      <trkpt lat="45.58987" lon="6.14777">
        <ele>1068.49</ele>
        <time>2014-06-14T13:20:40Z</time>
      </trkpt>
      <trkpt lat="45.58984" lon="6.14751">
        <ele>1064.01</ele>
        <time>2014-06-14T13:20:54Z</time>
      </trkpt>
      <trkpt lat="45.58974" lon="6.14728">
        <ele>1059.44</ele>
        <time>2014-06-14T13:21:13Z</time>
      </trkpt>
      <trkpt lat="45.58974" lon="6.14701">
        <ele>1056.16</ele>
        <time>2014-06-14T13:21:40Z</time>
      </trkpt>
      <trkpt lat="45.5898" lon="6.14676">
        <ele>1049.21</ele>
        <time>2014-06-14T13:21:57Z</time>
      </trkpt>
      <trkpt lat="45.58985" lon="6.14651">
        <ele>1044.3</ele>
        <time>2014-06-14T13:22:15Z</time>
      </trkpt>
      <trkpt lat="45.58985" lon="6.14624">
        <ele>1045.52</ele>
        <time>2014-06-14T13:22:30Z</time>
      </trkpt>
      <trkpt lat="45.58979" lon="6.14599">
        <ele>1038.99</ele>
        <time>2014-06-14T13:23:10Z</time>
      </trkpt>
      <trkpt lat="45.58993" lon="6.14582">
        <ele>1024.91</ele>
        <time>2014-06-14T13:23:36Z</time>
      </trkpt>
      <trkpt lat="45.59009" lon="6.1457">
        <ele>1021.17</ele>
        <time>2014-06-14T13:24:14Z</time>
      </trkpt>
      <trkpt lat="45.59028" lon="6.14561">
        <ele>1016.73</ele>
        <time>2014-06-14T13:24:46Z</time>
      </trkpt>
      <trkpt lat="45.59045" lon="6.14551">
        <ele>1016.52</ele>
        <time>2014-06-14T13:24:55Z</time>
      </trkpt>
      <trkpt lat="45.59062" lon="6.14539">
        <ele>1021.26</ele>
        <time>2014-06-14T13:25:05Z</time>
      </trkpt>
      <trkpt lat="45.59076" lon="6.14522">
        <ele>1024.42</ele>
        <time>2014-06-14T13:25:18Z</time>
      </trkpt>
      <trkpt lat="45.59093" lon="6.14512">
        <ele>1025.93</ele>
        <time>2014-06-14T13:26:03Z</time>
      </trkpt>
      <trkpt lat="45.59111" lon="6.14503">
        <ele>1021.45</ele>
        <time>2014-06-14T13:26:13Z</time>
      </trkpt>
      <trkpt lat="45.59127" lon="6.14492">
        <ele>1025.02</ele>
        <time>2014-06-14T13:26:30Z</time>
      </trkpt>
      <trkpt lat="45.59144" lon="6.14478">
        <ele>1039.48</ele>
        <time>2014-06-14T13:26:38Z</time>
      </trkpt>
      <trkpt lat="45.59179" lon="6.14481">
        <ele>1043.93</ele>
        <time>2014-06-14T13:27:59Z</time>
      </trkpt>
      <trkpt lat="45.59197" lon="6.14488">
        <ele>1038.72</ele>
        <time>2014-06-14T13:28:08Z</time>
      </trkpt>
      <trkpt lat="45.59216" lon="6.14488">
        <ele>1036.88</ele>
        <time>2014-06-14T13:28:21Z</time>
      </trkpt>
      <trkpt lat="45.59233" lon="6.14496">
        <ele>1035.66</ele>
        <time>2014-06-14T13:28:31Z</time>
      </trkpt>
      <trkpt lat="45.59252" lon="6.14492">
        <ele>1025.33</ele>
        <time>2014-06-14T13:28:41Z</time>
      </trkpt>
      <trkpt lat="45.59272" lon="6.14493">
        <ele>1023.08</ele>
        <time>2014-06-14T13:29:08Z</time>
      </trkpt>
      <trkpt lat="45.59299" lon="6.14505">
        <ele>1025.02</ele>
        <time>2014-06-14T13:29:12Z</time>
      </trkpt>
      <trkpt lat="45.59317" lon="6.14509">
        <ele>1022.5</ele>
        <time>2014-06-14T13:29:31Z</time>
      </trkpt>
      <trkpt lat="45.59338" lon="6.14505">
        <ele>1009.3</ele>
        <time>2014-06-14T13:29:57Z</time>
      </trkpt>
      <trkpt lat="45.59356" lon="6.14503">
        <ele>1005.87</ele>
        <time>2014-06-14T13:30:04Z</time>
      </trkpt>
      <trkpt lat="45.59374" lon="6.14505">
        <ele>999.36</ele>
        <time>2014-06-14T13:30:16Z</time>
      </trkpt>
      <trkpt lat="45.59393" lon="6.14504">
        <ele>996.58</ele>
        <time>2014-06-14T13:30:25Z</time>
      </trkpt>
      <trkpt lat="45.5941" lon="6.14495">
        <ele>992</ele>
        <time>2014-06-14T13:30:38Z</time>
      </trkpt>
      <trkpt lat="45.5943" lon="6.14493">
        <ele>992.33</ele>
        <time>2014-06-14T13:30:50Z</time>
      </trkpt>
      <trkpt lat="45.59447" lon="6.14484">
        <ele>991.94</ele>
        <time>2014-06-14T13:31:05Z</time>
      </trkpt>
      <trkpt lat="45.59466" lon="6.14486">
        <ele>990.7</ele>
        <time>2014-06-14T13:31:45Z</time>
      </trkpt>
      <trkpt lat="45.59487" lon="6.14487">
        <ele>989.66</ele>
        <time>2014-06-14T13:31:58Z</time>
      </trkpt>
      <trkpt lat="45.59505" lon="6.14487">
        <ele>986.45</ele>
        <time>2014-06-14T13:32:31Z</time>
      </trkpt>
      <trkpt lat="45.59524" lon="6.1448">
        <ele>981.08</ele>
        <time>2014-06-14T13:32:42Z</time>
      </trkpt>
      <trkpt lat="45.59543" lon="6.14478">
        <ele>973.93</ele>
        <time>2014-06-14T13:32:55Z</time>
      </trkpt>
      <trkpt lat="45.59561" lon="6.14472">
        <ele>969.55</ele>
        <time>2014-06-14T13:33:08Z</time>
      </trkpt>
      <trkpt lat="45.59579" lon="6.14472">
        <ele>969.2</ele>
        <time>2014-06-14T13:33:22Z</time>
      </trkpt>
      <trkpt lat="45.59598" lon="6.1447">
        <ele>970.38</ele>
        <time>2014-06-14T13:33:34Z</time>
      </trkpt>
      <trkpt lat="45.59616" lon="6.14468">
        <ele>969.11</ele>
        <time>2014-06-14T13:33:47Z</time>
      </trkpt>
      <trkpt lat="45.59635" lon="6.14465">
        <ele>966.98</ele>
        <time>2014-06-14T13:34:02Z</time>
      </trkpt>
      <trkpt lat="45.59654" lon="6.14457">
        <ele>963.15</ele>
        <time>2014-06-14T13:34:17Z</time>
      </trkpt>
      <trkpt lat="45.5967" lon="6.14444">
        <ele>962.07</ele>
        <time>2014-06-14T13:34:32Z</time>
      </trkpt>
      <trkpt lat="45.59688" lon="6.14441">
        <ele>961.76</ele>
        <time>2014-06-14T13:34:43Z</time>
      </trkpt>
      <trkpt lat="45.59706" lon="6.14437">
        <ele>956.9</ele>
        <time>2014-06-14T13:34:56Z</time>
      </trkpt>
      <trkpt lat="45.59723" lon="6.14426">
        <ele>961.6</ele>
        <time>2014-06-14T13:35:22Z</time>
      </trkpt>
      <trkpt lat="45.59741" lon="6.14416">
        <ele>966.24</ele>
        <time>2014-06-14T13:37:31Z</time>
      </trkpt>
      <trkpt lat="45.59761" lon="6.14409">
        <ele>958.81</ele>
        <time>2014-06-14T13:37:32Z</time>
      </trkpt>
      <trkpt lat="45.59783" lon="6.14411">
        <ele>957.68</ele>
        <time>2014-06-14T13:37:37Z</time>
      </trkpt>
      <trkpt lat="45.59801" lon="6.14417">
        <ele>960.95</ele>
        <time>2014-06-14T13:37:43Z</time>
      </trkpt>
      <trkpt lat="45.59819" lon="6.14421">
        <ele>963.73</ele>
        <time>2014-06-14T13:37:48Z</time>
      </trkpt>
      <trkpt lat="45.59837" lon="6.14424">
        <ele>961.65</ele>
        <time>2014-06-14T13:37:54Z</time>
      </trkpt>
      <trkpt lat="45.59854" lon="6.14433">
        <ele>966.34</ele>
        <time>2014-06-14T13:38:04Z</time>
      </trkpt>
      <trkpt lat="45.59869" lon="6.14449">
        <ele>968.41</ele>
        <time>2014-06-14T13:38:21Z</time>
      </trkpt>
      <trkpt lat="45.59886" lon="6.14461">
        <ele>981.53</ele>
        <time>2014-06-14T13:38:54Z</time>
      </trkpt>
      <trkpt lat="45.59903" lon="6.1447">
        <ele>984.24</ele>
        <time>2014-06-14T13:39:17Z</time>
      </trkpt>
      <trkpt lat="45.59921" lon="6.14474">
        <ele>981.86</ele>
        <time>2014-06-14T13:39:31Z</time>
      </trkpt>
      <trkpt lat="45.59939" lon="6.14483">
        <ele>974.87</ele>
        <time>2014-06-14T13:39:43Z</time>
      </trkpt>
      <trkpt lat="45.59957" lon="6.14492">
        <ele>968.9</ele>
        <time>2014-06-14T13:39:55Z</time>
      </trkpt>
      <trkpt lat="45.59972" lon="6.14508">
        <ele>965.63</ele>
        <time>2014-06-14T13:40:09Z</time>
      </trkpt>
      <trkpt lat="45.59987" lon="6.14525">
        <ele>965.85</ele>
        <time>2014-06-14T13:40:24Z</time>
      </trkpt>
      <trkpt lat="45.60004" lon="6.14535">
        <ele>966.36</ele>
        <time>2014-06-14T13:40:40Z</time>
      </trkpt>
      <trkpt lat="45.60019" lon="6.1455">
        <ele>964.76</ele>
        <time>2014-06-14T13:40:56Z</time>
      </trkpt>
      <trkpt lat="45.60037" lon="6.14559">
        <ele>971.93</ele>
        <time>2014-06-14T13:41:15Z</time>
      </trkpt>
      <trkpt lat="45.60052" lon="6.14574">
        <ele>970.73</ele>
        <time>2014-06-14T13:41:28Z</time>
      </trkpt>
      <trkpt lat="45.60069" lon="6.14583">
        <ele>970.03</ele>
        <time>2014-06-14T13:41:47Z</time>
      </trkpt>
      <trkpt lat="45.60087" lon="6.14593">
        <ele>965.2</ele>
        <time>2014-06-14T13:42:00Z</time>
      </trkpt>
      <trkpt lat="45.60102" lon="6.14605">
        <ele>963.57</ele>
        <time>2014-06-14T13:42:18Z</time>
      </trkpt>
      <trkpt lat="45.60119" lon="6.14615">
        <ele>960.79</ele>
        <time>2014-06-14T13:42:34Z</time>
      </trkpt>
      <trkpt lat="45.60135" lon="6.14628">
        <ele>966.34</ele>
        <time>2014-06-14T13:42:51Z</time>
      </trkpt>
      <trkpt lat="45.6015" lon="6.14644">
        <ele>963.98</ele>
        <time>2014-06-14T13:43:09Z</time>
      </trkpt>
      <trkpt lat="45.60168" lon="6.1465">
        <ele>964.8</ele>
        <time>2014-06-14T13:43:22Z</time>
      </trkpt>
      <trkpt lat="45.60186" lon="6.14659">
        <ele>961.06</ele>
        <time>2014-06-14T13:43:37Z</time>
      </trkpt>
      <trkpt lat="45.60203" lon="6.14667">
        <ele>959.43</ele>
        <time>2014-06-14T13:43:57Z</time>
      </trkpt>
      <trkpt lat="45.60221" lon="6.14667">
        <ele>960.07</ele>
        <time>2014-06-14T13:44:13Z</time>
      </trkpt>
      <trkpt lat="45.6024" lon="6.14673">
        <ele>960.61</ele>
        <time>2014-06-14T13:44:28Z</time>
      </trkpt>
      <trkpt lat="45.60255" lon="6.14687">
        <ele>957.72</ele>
        <time>2014-06-14T13:44:42Z</time>
      </trkpt>
      <trkpt lat="45.60272" lon="6.14698">
        <ele>961.76</ele>
        <time>2014-06-14T13:44:59Z</time>
      </trkpt>
      <trkpt lat="45.60288" lon="6.14711">
        <ele>955.02</ele>
        <time>2014-06-14T13:45:13Z</time>
      </trkpt>
      <trkpt lat="45.60305" lon="6.1472">
        <ele>952.96</ele>
        <time>2014-06-14T13:45:29Z</time>
      </trkpt>
      <trkpt lat="45.60322" lon="6.14729">
        <ele>952.08</ele>
        <time>2014-06-14T13:45:47Z</time>
      </trkpt>
      <trkpt lat="45.60339" lon="6.14742">
        <ele>950.25</ele>
        <time>2014-06-14T13:46:08Z</time>
      </trkpt>
      <trkpt lat="45.60354" lon="6.14755">
        <ele>952.61</ele>
        <time>2014-06-14T13:46:24Z</time>
      </trkpt>
      <trkpt lat="45.60371" lon="6.14764">
        <ele>952.64</ele>
        <time>2014-06-14T13:46:36Z</time>
      </trkpt>
      <trkpt lat="45.6039" lon="6.14772">
        <ele>949.85</ele>
        <time>2014-06-14T13:46:50Z</time>
      </trkpt>
      <trkpt lat="45.60408" lon="6.14777">
        <ele>949.08</ele>
        <time>2014-06-14T13:48:53Z</time>
      </trkpt>
      <trkpt lat="45.60425" lon="6.14785">
        <ele>944.38</ele>
        <time>2014-06-14T13:49:16Z</time>
      </trkpt>
      <trkpt lat="45.60441" lon="6.14796">
        <ele>943.39</ele>
        <time>2014-06-14T13:49:33Z</time>
      </trkpt>
      <trkpt lat="45.60458" lon="6.14804">
        <ele>945.5</ele>
        <time>2014-06-14T13:49:47Z</time>
      </trkpt>
      <trkpt lat="45.60476" lon="6.14812">
        <ele>942.54</ele>
        <time>2014-06-14T13:50:03Z</time>
      </trkpt>
      <trkpt lat="45.60494" lon="6.14818">
        <ele>947.1</ele>
        <time>2014-06-14T13:50:18Z</time>
      </trkpt>
      <trkpt lat="45.60513" lon="6.14825">
        <ele>942.8</ele>
        <time>2014-06-14T13:50:39Z</time>
      </trkpt>
      <trkpt lat="45.6053" lon="6.14832">
        <ele>945.65</ele>
        <time>2014-06-14T13:50:55Z</time>
      </trkpt>
      <trkpt lat="45.60549" lon="6.14839">
        <ele>947.77</ele>
        <time>2014-06-14T13:51:11Z</time>
      </trkpt>
      <trkpt lat="45.60566" lon="6.14846">
        <ele>949.34</ele>
        <time>2014-06-14T13:51:26Z</time>
      </trkpt>
      <trkpt lat="45.60585" lon="6.14854">
        <ele>950.2</ele>
        <time>2014-06-14T13:51:41Z</time>
      </trkpt>
      <trkpt lat="45.60603" lon="6.14857">
        <ele>952.49</ele>
        <time>2014-06-14T13:51:57Z</time>
      </trkpt>
      <trkpt lat="45.60621" lon="6.14866">
        <ele>950.82</ele>
        <time>2014-06-14T13:52:12Z</time>
      </trkpt>
      <trkpt lat="45.60638" lon="6.14876">
        <ele>948.2</ele>
        <time>2014-06-14T13:52:28Z</time>
      </trkpt>
      <trkpt lat="45.60655" lon="6.14884">
        <ele>946.6</ele>
        <time>2014-06-14T13:52:47Z</time>
      </trkpt>
      <trkpt lat="45.60672" lon="6.14892">
        <ele>940.02</ele>
        <time>2014-06-14T13:53:11Z</time>
      </trkpt>
      <trkpt lat="45.60687" lon="6.14907">
        <ele>928.37</ele>
        <time>2014-06-14T13:53:34Z</time>
      </trkpt>
      <trkpt lat="45.60702" lon="6.14921">
        <ele>924.87</ele>
        <time>2014-06-14T13:53:55Z</time>
      </trkpt>
      <trkpt lat="45.60721" lon="6.14924">
        <ele>924.1</ele>
        <time>2014-06-14T13:54:08Z</time>
      </trkpt>
      <trkpt lat="45.60739" lon="6.14929">
        <ele>925.4</ele>
        <time>2014-06-14T13:54:24Z</time>
      </trkpt>
      <trkpt lat="45.60757" lon="6.14935">
        <ele>924.61</ele>
        <time>2014-06-14T13:54:40Z</time>
      </trkpt>
      <trkpt lat="45.60776" lon="6.14937">
        <ele>923.99</ele>
        <time>2014-06-14T13:54:55Z</time>
      </trkpt>
      <trkpt lat="45.60795" lon="6.14943">
        <ele>926.71</ele>
        <time>2014-06-14T13:55:08Z</time>
      </trkpt>
      <trkpt lat="45.60813" lon="6.1495">
        <ele>928.68</ele>
        <time>2014-06-14T13:55:19Z</time>
      </trkpt>
      <trkpt lat="45.60831" lon="6.14957">
        <ele>934.69</ele>
        <time>2014-06-14T13:55:34Z</time>
      </trkpt>
      <trkpt lat="45.60849" lon="6.14955">
        <ele>938.04</ele>
        <time>2014-06-14T13:55:58Z</time>
      </trkpt>
      <trkpt lat="45.60867" lon="6.1496">
        <ele>929</ele>
        <time>2014-06-14T13:56:27Z</time>
      </trkpt>
      <trkpt lat="45.60886" lon="6.14959">
        <ele>927.01</ele>
        <time>2014-06-14T13:56:43Z</time>
      </trkpt>
      <trkpt lat="45.60904" lon="6.14966">
        <ele>920.12</ele>
        <time>2014-06-14T13:57:03Z</time>
      </trkpt>
      <trkpt lat="45.60922" lon="6.14974">
        <ele>911.98</ele>
        <time>2014-06-14T13:57:17Z</time>
      </trkpt>
      <trkpt lat="45.6094" lon="6.14984">
        <ele>906.57</ele>
        <time>2014-06-14T13:57:33Z</time>
      </trkpt>
      <trkpt lat="45.60958" lon="6.14993">
        <ele>903.06</ele>
        <time>2014-06-14T13:57:49Z</time>
      </trkpt>
      <trkpt lat="45.60976" lon="6.14998">
        <ele>903.33</ele>
        <time>2014-06-14T13:58:09Z</time>
      </trkpt>
      <trkpt lat="45.60994" lon="6.14997">
        <ele>903.25</ele>
        <time>2014-06-14T13:58:32Z</time>
      </trkpt>
      <trkpt lat="45.61012" lon="6.14992">
        <ele>906.57</ele>
        <time>2014-06-14T13:58:49Z</time>
      </trkpt>
      <trkpt lat="45.6103" lon="6.14998">
        <ele>905.52</ele>
        <time>2014-06-14T13:59:04Z</time>
      </trkpt>
      <trkpt lat="45.61049" lon="6.14998">
        <ele>901.88</ele>
        <time>2014-06-14T13:59:20Z</time>
      </trkpt>
      <trkpt lat="45.61069" lon="6.14998">
        <ele>904.01</ele>
        <time>2014-06-14T13:59:33Z</time>
      </trkpt>
      <trkpt lat="45.61087" lon="6.14995">
        <ele>901.75</ele>
        <time>2014-06-14T13:59:48Z</time>
      </trkpt>
      <trkpt lat="45.61105" lon="6.14999">
        <ele>893.29</ele>
        <time>2014-06-14T14:00:02Z</time>
      </trkpt>
      <trkpt lat="45.61123" lon="6.15003">
        <ele>894.93</ele>
        <time>2014-06-14T14:00:15Z</time>
      </trkpt>
      <trkpt lat="45.61142" lon="6.15009">
        <ele>895.75</ele>
        <time>2014-06-14T14:00:30Z</time>
      </trkpt>
      <trkpt lat="45.61159" lon="6.15019">
        <ele>895.89</ele>
        <time>2014-06-14T14:00:43Z</time>
      </trkpt>
      <trkpt lat="45.61177" lon="6.15025">
        <ele>899.68</ele>
        <time>2014-06-14T14:00:55Z</time>
      </trkpt>
      <trkpt lat="45.61194" lon="6.15036">
        <ele>901.77</ele>
        <time>2014-06-14T14:01:07Z</time>
      </trkpt>
      <trkpt lat="45.61211" lon="6.15048">
        <ele>909.14</ele>
        <time>2014-06-14T14:01:18Z</time>
      </trkpt>
      <trkpt lat="45.61229" lon="6.15054">
        <ele>920.62</ele>
        <time>2014-06-14T14:01:25Z</time>
      </trkpt>
      <trkpt lat="45.61246" lon="6.15067">
        <ele>924.69</ele>
        <time>2014-06-14T14:01:37Z</time>
      </trkpt>
      <trkpt lat="45.61262" lon="6.1508">
        <ele>925.38</ele>
        <time>2014-06-14T14:01:53Z</time>
      </trkpt>
      <trkpt lat="45.6128" lon="6.1509">
        <ele>927.63</ele>
        <time>2014-06-14T14:02:08Z</time>
      </trkpt>
      <trkpt lat="45.61296" lon="6.15102">
        <ele>928.84</ele>
        <time>2014-06-14T14:02:24Z</time>
      </trkpt>
      <trkpt lat="45.61311" lon="6.15117">
        <ele>927.91</ele>
        <time>2014-06-14T14:02:40Z</time>
      </trkpt>
      <trkpt lat="45.61328" lon="6.15129">
        <ele>926.05</ele>
        <time>2014-06-14T14:02:57Z</time>
      </trkpt>
      <trkpt lat="45.61341" lon="6.15148">
        <ele>924.3</ele>
        <time>2014-06-14T14:03:15Z</time>
      </trkpt>
      <trkpt lat="45.61354" lon="6.15168">
        <ele>921.74</ele>
        <time>2014-06-14T14:03:32Z</time>
      </trkpt>
      <trkpt lat="45.6137" lon="6.15182">
        <ele>919.82</ele>
        <time>2014-06-14T14:03:57Z</time>
      </trkpt>
      <trkpt lat="45.61385" lon="6.15197">
        <ele>918.52</ele>
        <time>2014-06-14T14:04:13Z</time>
      </trkpt>
      <trkpt lat="45.61399" lon="6.15215">
        <ele>918.64</ele>
        <time>2014-06-14T14:04:30Z</time>
      </trkpt>
      <trkpt lat="45.61412" lon="6.15234">
        <ele>914.36</ele>
        <time>2014-06-14T14:04:50Z</time>
      </trkpt>
      <trkpt lat="45.61427" lon="6.15248">
        <ele>911.38</ele>
        <time>2014-06-14T14:05:09Z</time>
      </trkpt>
      <trkpt lat="45.61439" lon="6.1527">
        <ele>909.95</ele>
        <time>2014-06-14T14:05:25Z</time>
      </trkpt>
      <trkpt lat="45.61449" lon="6.15292">
        <ele>900.05</ele>
        <time>2014-06-14T14:05:39Z</time>
      </trkpt>
      <trkpt lat="45.61465" lon="6.15306">
        <ele>903.78</ele>
        <time>2014-06-14T14:05:51Z</time>
      </trkpt>
      <trkpt lat="45.6148" lon="6.15322">
        <ele>904.38</ele>
        <time>2014-06-14T14:06:03Z</time>
      </trkpt>
      <trkpt lat="45.61493" lon="6.15341">
        <ele>902.52</ele>
        <time>2014-06-14T14:06:21Z</time>
      </trkpt>
      <trkpt lat="45.61509" lon="6.15355">
        <ele>900.71</ele>
        <time>2014-06-14T14:06:39Z</time>
      </trkpt>
      <trkpt lat="45.61525" lon="6.15365">
        <ele>900.59</ele>
        <time>2014-06-14T14:06:53Z</time>
      </trkpt>
      <trkpt lat="45.61543" lon="6.15373">
        <ele>896.75</ele>
        <time>2014-06-14T14:07:10Z</time>
      </trkpt>
      <trkpt lat="45.61561" lon="6.15373">
        <ele>892.59</ele>
        <time>2014-06-14T14:07:38Z</time>
      </trkpt>
      <trkpt lat="45.61573" lon="6.15353">
        <ele>891.38</ele>
        <time>2014-06-14T14:07:53Z</time>
      </trkpt>
      <trkpt lat="45.61569" lon="6.15327">
        <ele>890.24</ele>
        <time>2014-06-14T14:08:10Z</time>
      </trkpt>
      <trkpt lat="45.61575" lon="6.15302">
        <ele>891.11</ele>
        <time>2014-06-14T14:08:29Z</time>
      </trkpt>
      <trkpt lat="45.61587" lon="6.15281">
        <ele>890.38</ele>
        <time>2014-06-14T14:08:46Z</time>
      </trkpt>
      <trkpt lat="45.61599" lon="6.15261">
        <ele>884.41</ele>
        <time>2014-06-14T14:09:10Z</time>
      </trkpt>
      <trkpt lat="45.61608" lon="6.15239">
        <ele>875.77</ele>
        <time>2014-06-14T14:09:27Z</time>
      </trkpt>
      <trkpt lat="45.61614" lon="6.15214">
        <ele>871.07</ele>
        <time>2014-06-14T14:09:51Z</time>
      </trkpt>
      <trkpt lat="45.61627" lon="6.15194">
        <ele>859.78</ele>
        <time>2014-06-14T14:10:11Z</time>
      </trkpt>
      <trkpt lat="45.61645" lon="6.15185">
        <ele>835.89</ele>
        <time>2014-06-14T14:10:38Z</time>
      </trkpt>
      <trkpt lat="45.61663" lon="6.15181">
        <ele>831.01</ele>
        <time>2014-06-14T14:10:55Z</time>
      </trkpt>
      <trkpt lat="45.61681" lon="6.15171">
        <ele>831.99</ele>
        <time>2014-06-14T14:11:07Z</time>
      </trkpt>
      <trkpt lat="45.61699" lon="6.15164">
        <ele>833.07</ele>
        <time>2014-06-14T14:11:21Z</time>
      </trkpt>
      <trkpt lat="45.61717" lon="6.15155">
        <ele>831.81</ele>
        <time>2014-06-14T14:11:37Z</time>
      </trkpt>
      <trkpt lat="45.6173" lon="6.15138">
        <ele>830.93</ele>
        <time>2014-06-14T14:11:50Z</time>
      </trkpt>
      <trkpt lat="45.61745" lon="6.15123">
        <ele>827.24</ele>
        <time>2014-06-14T14:12:07Z</time>
      </trkpt>
      <trkpt lat="45.6176" lon="6.15109">
        <ele>828.52</ele>
        <time>2014-06-14T14:12:24Z</time>
      </trkpt>
      <trkpt lat="45.61775" lon="6.15092">
        <ele>825.82</ele>
        <time>2014-06-14T14:12:40Z</time>
      </trkpt>
      <trkpt lat="45.61789" lon="6.15075">
        <ele>821.31</ele>
        <time>2014-06-14T14:12:57Z</time>
      </trkpt>
      <trkpt lat="45.61798" lon="6.15052">
        <ele>817.55</ele>
        <time>2014-06-14T14:13:11Z</time>
      </trkpt>
      <trkpt lat="45.61798" lon="6.15024">
        <ele>814.68</ele>
        <time>2014-06-14T14:13:24Z</time>
      </trkpt>
      <trkpt lat="45.61798" lon="6.14997">
        <ele>814.29</ele>
        <time>2014-06-14T14:13:38Z</time>
      </trkpt>
      <trkpt lat="45.61803" lon="6.14972">
        <ele>814.83</ele>
        <time>2014-06-14T14:13:52Z</time>
      </trkpt>
      <trkpt lat="45.61806" lon="6.14945">
        <ele>813.91</ele>
        <time>2014-06-14T14:14:07Z</time>
      </trkpt>
      <trkpt lat="45.6181" lon="6.14919">
        <ele>811.88</ele>
        <time>2014-06-14T14:14:21Z</time>
      </trkpt>
      <trkpt lat="45.61813" lon="6.14893">
        <ele>812.17</ele>
        <time>2014-06-14T14:14:34Z</time>
      </trkpt>
      <trkpt lat="45.61816" lon="6.14867">
        <ele>814.13</ele>
        <time>2014-06-14T14:14:48Z</time>
      </trkpt>
      <trkpt lat="45.61822" lon="6.14842">
        <ele>814.99</ele>
        <time>2014-06-14T14:15:02Z</time>
      </trkpt>
      <trkpt lat="45.61832" lon="6.1482">
        <ele>806.71</ele>
        <time>2014-06-14T14:15:21Z</time>
      </trkpt>
      <trkpt lat="45.61841" lon="6.14796">
        <ele>797.61</ele>
        <time>2014-06-14T14:16:10Z</time>
      </trkpt>
      <trkpt lat="45.61844" lon="6.1477">
        <ele>795.38</ele>
        <time>2014-06-14T14:16:24Z</time>
      </trkpt>
      <trkpt lat="45.61846" lon="6.14744">
        <ele>794.5</ele>
        <time>2014-06-14T14:16:37Z</time>
      </trkpt>
      <trkpt lat="45.6184" lon="6.14718">
        <ele>788.41</ele>
        <time>2014-06-14T14:17:09Z</time>
      </trkpt>
      <trkpt lat="45.61829" lon="6.14697">
        <ele>787.34</ele>
        <time>2014-06-14T14:17:22Z</time>
      </trkpt>
      <trkpt lat="45.61818" lon="6.14676">
        <ele>788.16</ele>
        <time>2014-06-14T14:17:36Z</time>
      </trkpt>
      <trkpt lat="45.61805" lon="6.14657">
        <ele>779.8</ele>
        <time>2014-06-14T14:18:40Z</time>
      </trkpt>
      <trkpt lat="45.61794" lon="6.14636">
        <ele>784.97</ele>
        <time>2014-06-14T14:19:11Z</time>
      </trkpt>
      <trkpt lat="45.61776" lon="6.14632">
        <ele>777.86</ele>
        <time>2014-06-14T14:19:28Z</time>
      </trkpt>
      <trkpt lat="45.61758" lon="6.14623">
        <ele>777.79</ele>
        <time>2014-06-14T14:19:42Z</time>
      </trkpt>
      <trkpt lat="45.61743" lon="6.14607">
        <ele>776.37</ele>
        <time>2014-06-14T14:19:56Z</time>
      </trkpt>
      <trkpt lat="45.61725" lon="6.14599">
        <ele>776.56</ele>
        <time>2014-06-14T14:20:10Z</time>
      </trkpt>
      <trkpt lat="45.61707" lon="6.14598">
        <ele>775.47</ele>
        <time>2014-06-14T14:20:39Z</time>
      </trkpt>
      <trkpt lat="45.61688" lon="6.14589">
        <ele>776.15</ele>
        <time>2014-06-14T14:20:51Z</time>
      </trkpt>
      <trkpt lat="45.61671" lon="6.14581">
        <ele>777.36</ele>
        <time>2014-06-14T14:21:06Z</time>
      </trkpt>
      <trkpt lat="45.61658" lon="6.14562">
        <ele>780.69</ele>
        <time>2014-06-14T14:21:21Z</time>
      </trkpt>
      <trkpt lat="45.61646" lon="6.14542">
        <ele>779.28</ele>
        <time>2014-06-14T14:21:29Z</time>
      </trkpt>
      <trkpt lat="45.61637" lon="6.14518">
        <ele>778.25</ele>
        <time>2014-06-14T14:21:43Z</time>
      </trkpt>
    </trkseg>
  </trk>
</gpx>